Observation data for Stamford on 04/08/2021      Previous  Date  Next       Current Mesonet Observations  Soil Data  Daily Summary Page  Observations in Plain Language
KST2 080500Z 10004KT 13/00 A2987 RMK A01 T01310002  RH  041%=      5-min Rain = 0
KST2 080501Z 10004KT 13/00 A2987 RMK A01 T01310002  RH  041%=      5-min Rain = 0
KST2 080502Z 10004KT 13/00 A2987 RMK A01 T01300002  RH  041%=      5-min Rain = 0
KST2 080503Z 10004KT 13/00 A2987 RMK A01 T01300002  RH  041%=      5-min Rain = 0
KST2 080504Z 10005KT 13/00 A2987 RMK A01 T01300003  RH  042%=      5-min Rain = 0
KST2 080505Z 10004KT 13/00 A2987 RMK A01 T01300003  RH  042%=      5-min Rain = 0
KST2 080506Z 10004KT 13/00 A2987 RMK A01 T01300003  RH  042%=      5-min Rain = 0
KST2 080507Z 09004KT 13/00 A2988 RMK A01 T01290003  RH  042%=      5-min Rain = 0
KST2 080508Z 09004KT 13/00 A2988 RMK A01 T01260003  RH  043%=      5-min Rain = 0
KST2 080509Z 07004KT 12/00 A2988 RMK A01 T01210002  RH  044%=      5-min Rain = 0
KST2 080510Z 07004KT 12/00 A2988 RMK A01 T01150003  RH  046%=      5-min Rain = 0
KST2 080511Z 08004KT 11/00 A2988 RMK A01 T01100004  RH  048%=      5-min Rain = 0
KST2 080512Z 09004KT 11/01 A2988 RMK A01 T01090005  RH  049%=      5-min Rain = 0
KST2 080513Z 09004KT 11/01 A2988 RMK A01 T01090006  RH  049%=      5-min Rain = 0
KST2 080514Z 08004KT 11/01 A2988 RMK A01 T01090006  RH  049%=      5-min Rain = 0
KST2 080515Z 08004KT 11/01 A2988 RMK A01 T01100007  RH  049%=      5-min Rain = 0
KST2 080516Z 08004KT 11/01 A2987 RMK A01 T01120007  RH  048%=      5-min Rain = 0
KST2 080517Z 08004KT 12/01 A2987 RMK A01 T01160008  RH  047%=      5-min Rain = 0
KST2 080518Z 09004KT 12/01 A2987 RMK A01 T01200008  RH  046%=      5-min Rain = 0
KST2 080519Z 09004KT 12/01 A2988 RMK A01 T01220008  RH  045%=      5-min Rain = 0
KST2 080520Z 08004KT 12/01 A2988 RMK A01 T01220007  RH  045%=      5-min Rain = 0
KST2 080521Z 09004KT 12/01 A2988 RMK A01 T01230006  RH  045%=      5-min Rain = 0
KST2 080522Z 09004KT 12/01 A2988 RMK A01 T01230006  RH  045%=      5-min Rain = 0
KST2 080523Z 10003KT 12/01 A2988 RMK A01 T01230006  RH  045%=      5-min Rain = 0
KST2 080524Z 10003KT 12/01 A2988 RMK A01 T01230006  RH  045%=      5-min Rain = 0
KST2 080525Z 10003KT 12/01 A2988 RMK A01 T01230006  RH  045%=      5-min Rain = 0
KST2 080526Z 10003KT 12/01 A2988 RMK A01 T01220006  RH  045%=      5-min Rain = 0
KST2 080527Z 10003KT 12/01 A2988 RMK A01 T01220006  RH  045%=      5-min Rain = 0
KST2 080528Z 10003KT 12/01 A2988 RMK A01 T01220006  RH  045%=      5-min Rain = 0
KST2 080529Z 09003KT 12/01 A2988 RMK A01 T01210006  RH  045%=      5-min Rain = 0
KST2 080530Z 09003KT 12/00 A2988 RMK A01 T01210004  RH  045%=      5-min Rain = 0
KST2 080531Z 09004KT 12/00 A2988 RMK A01 T01210003  RH  044%=      5-min Rain = 0
KST2 080532Z 09004KT 12/00 A2988 RMK A01 T01200002  RH  044%=      5-min Rain = 0
KST2 080533Z 10004KT 12/00 A2988 RMK A01 T01190002  RH  044%=      5-min Rain = 0
KST2 080534Z 10004KT 12/00 A2988 RMK A01 T01190002  RH  045%=      5-min Rain = 0
KST2 080535Z 11004KT 12/00 A2988 RMK A01 T01180002  RH  045%=      5-min Rain = 0
KST2 080536Z 11004KT 12/00 A2988 RMK A01 T01180002  RH  045%=      5-min Rain = 0
KST2 080537Z 12004KT 12/00 A2988 RMK A01 T01180002  RH  045%=      5-min Rain = 0
KST2 080538Z 12004KT 12/00 A2988 RMK A01 T01190002  RH  045%=      5-min Rain = 0
KST2 080539Z 12004KT 12/00 A2988 RMK A01 T01190002  RH  045%=      5-min Rain = 0
KST2 080540Z 12004KT 12/00 A2988 RMK A01 T01190002  RH  044%=      5-min Rain = 0
KST2 080541Z 12004KT 12/00 A2988 RMK A01 T01200002  RH  044%=      5-min Rain = 0
KST2 080542Z 12004KT 12/00 A2988 RMK A01 T01200002  RH  044%=      5-min Rain = 0
KST2 080543Z 12004KT 12/00 A2988 RMK A01 T01200002  RH  044%=      5-min Rain = 0
KST2 080544Z 11004KT 12/00 A2988 RMK A01 T01200002  RH  044%=      5-min Rain = 0
KST2 080545Z 11004KT 12/00 A2988 RMK A01 T01200003  RH  044%=      5-min Rain = 0
KST2 080546Z 10004KT 12/00 A2988 RMK A01 T01200003  RH  044%=      5-min Rain = 0
KST2 080547Z 10004KT 12/00 A2988 RMK A01 T01200003  RH  044%=      5-min Rain = 0
KST2 080548Z 09004KT 12/00 A2988 RMK A01 T01200003  RH  044%=      5-min Rain = 0
KST2 080549Z 09003KT 12/00 A2988 RMK A01 T01200002  RH  044%=      5-min Rain = 0
KST2 080550Z 09003KT 12/00 A2988 RMK A01 T01190002  RH  044%=      5-min Rain = 0
KST2 080551Z 10003KT 12/00 A2988 RMK A01 T01190002  RH  045%=      5-min Rain = 0
KST2 080552Z 10003KT 12/00 A2988 RMK A01 T01190002  RH  045%=      5-min Rain = 0
KST2 080553Z 10003KT 12/00 A2988 RMK A01 T01180002  RH  045%=      5-min Rain = 0
KST2 080554Z 11003KT 12/00 A2988 RMK A01 T01180002  RH  045%=      5-min Rain = 0
KST2 080555Z 11003KT 12/00 A2988 RMK A01 T01170002  RH  045%=      5-min Rain = 0
KST2 080556Z 12004KT 12/00 A2988 RMK A01 T01170003  RH  045%=      5-min Rain = 0
KST2 080557Z 11004KT 12/00 A2988 RMK A01 T01180004  RH  045%=      5-min Rain = 0
KST2 080558Z 11003KT 12/00 A2988 RMK A01 T01180004  RH  045%=      5-min Rain = 0
KST2 080559Z 11003KT 12/00 A2988 RMK A01 T01190004  RH  045%=      5-min Rain = 0
KST2 080600Z 11003KT 12/00 A2988 RMK A01 T01180003  RH  045%=      5-min Rain = 0
KST2 080601Z 11003KT 12/00 A2988 RMK A01 T01180003  RH  045%=      5-min Rain = 0
KST2 080602Z 11003KT 12/00 A2988 RMK A01 T01170003  RH  045%=      5-min Rain = 0
KST2 080603Z 11003KT 12/00 A2988 RMK A01 T01170003  RH  045%=      5-min Rain = 0
KST2 080604Z 12003KT 12/00 A2988 RMK A01 T01170004  RH  046%=      5-min Rain = 0
KST2 080605Z 12003KT 12/00 A2988 RMK A01 T01170004  RH  046%=      5-min Rain = 0
KST2 080606Z 12003KT 12/00 A2988 RMK A01 T01170004  RH  046%=      5-min Rain = 0
KST2 080607Z 12004KT 12/00 A2988 RMK A01 T01160004  RH  046%=      5-min Rain = 0
KST2 080608Z 13004KT 12/00 A2988 RMK A01 T01160004  RH  046%=      5-min Rain = 0
KST2 080609Z 13004KT 12/00 A2988 RMK A01 T01160004  RH  046%=      5-min Rain = 0
KST2 080610Z 14004KT 12/00 A2988 RMK A01 T01160004  RH  046%=      5-min Rain = 0
KST2 080611Z 14004KT 12/00 A2988 RMK A01 T01150004  RH  046%=      5-min Rain = 0
KST2 080612Z 14004KT 12/00 A2988 RMK A01 T01150004  RH  046%=      5-min Rain = 0
KST2 080613Z 14004KT 12/00 A2988 RMK A01 T01150004  RH  046%=      5-min Rain = 0
KST2 080614Z 14003KT 12/00 A2988 RMK A01 T01160004  RH  046%=      5-min Rain = 0
KST2 080615Z 14003KT 12/00 A2988 RMK A01 T01160004  RH  046%=      5-min Rain = 0
KST2 080616Z 14003KT 12/00 A2988 RMK A01 T01160004  RH  046%=      5-min Rain = 0
KST2 080617Z 14003KT 12/00 A2988 RMK A01 T01160004  RH  046%=      5-min Rain = 0
KST2 080618Z 15003KT 12/00 A2988 RMK A01 T01150003  RH  046%=      5-min Rain = 0
KST2 080619Z 15003KT 11/00 A2988 RMK A01 T01140003  RH  046%=      5-min Rain = 0
KST2 080620Z 15003KT 11/00 A2988 RMK A01 T01140004  RH  046%=      5-min Rain = 0
KST2 080621Z 15003KT 11/00 A2988 RMK A01 T01140004  RH  046%=      5-min Rain = 0
KST2 080622Z 15004KT 11/00 A2989 RMK A01 T01140004  RH  046%=      5-min Rain = 0
KST2 080623Z 16004KT 12/00 A2989 RMK A01 T01150004  RH  046%=      5-min Rain = 0
KST2 080624Z 16004KT 12/00 A2989 RMK A01 T01150003  RH  046%=      5-min Rain = 0
KST2 080625Z 16004KT 11/00 A2988 RMK A01 T01140003  RH  046%=      5-min Rain = 0
KST2 080626Z 16004KT 12/00 A2988 RMK A01 T01150004  RH  046%=      5-min Rain = 0
KST2 080627Z 16004KT 12/00 A2988 RMK A01 T01150004  RH  046%=      5-min Rain = 0
KST2 080628Z 16004KT 12/00 A2988 RMK A01 T01150004  RH  046%=      5-min Rain = 0
KST2 080629Z 16004KT 12/00 A2988 RMK A01 T01150004  RH  046%=      5-min Rain = 0
KST2 080630Z 17004KT 12/00 A2989 RMK A01 T01150004  RH  046%=      5-min Rain = 0
KST2 080631Z 17004KT 12/01 A2989 RMK A01 T01150005  RH  047%=      5-min Rain = 0
KST2 080632Z 18004KT 11/01 A2989 RMK A01 T01130006  RH  048%=      5-min Rain = 0
KST2 080633Z 18004KT 11/01 A2989 RMK A01 T01100006  RH  049%=      5-min Rain = 0
KST2 080634Z 18003KT 11/01 A2989 RMK A01 T01070008  RH  050%=      5-min Rain = 0
KST2 080635Z 35004G10KT 11/01 A2989 RMK A01 T01050010  RH  052%=      5-min Rain = 0
KST2 080636Z 01010KT 10/01 A299 RMK A01 T01000008  RH  053%=      5-min Rain = 0
KST2 080637Z 35006KT 10/01 A299 RMK A01 T01000008  RH  053%=      5-min Rain = 0
KST2 080638Z 00005KT 11/01 A299 RMK A01 T01070010  RH  051%=      5-min Rain = 0
KST2 080639Z 01006KT 11/01 A299 RMK A01 T01120010  RH  049%=      5-min Rain = 0
KST2 080640Z 02006KT 11/01 A299 RMK A01 T01130010  RH  049%=      5-min Rain = 0
KST2 080641Z 03005KT 11/01 A299 RMK A01 T01110010  RH  050%=      5-min Rain = 0
KST2 080642Z 02004KT 11/01 A299 RMK A01 T01090010  RH  051%=      5-min Rain = 0
KST2 080643Z 01004KT 11/01 A299 RMK A01 T01080010  RH  051%=      5-min Rain = 0
KST2 080644Z 01008KT 11/01 A299 RMK A01 T01070011  RH  052%=      5-min Rain = 0
KST2 080645Z 02008KT 10/01 A299 RMK A01 T01040011  RH  053%=      5-min Rain = 0
KST2 080646Z 03007KT 10/01 A299 RMK A01 T01040012  RH  053%=      5-min Rain = 0
KST2 080647Z 03006KT 11/01 A299 RMK A01 T01050012  RH  053%=      5-min Rain = 0
KST2 080648Z 03007KT 10/01 A299 RMK A01 T01040012  RH  053%=      5-min Rain = 0
KST2 080649Z 03007KT 10/01 A299 RMK A01 T01020012  RH  053%=      5-min Rain = 0
KST2 080650Z 03006KT 10/01 A299 RMK A01 T01010012  RH  054%=      5-min Rain = 0
KST2 080651Z 03006KT 10/01 A299 RMK A01 T01000012  RH  054%=      5-min Rain = 0
KST2 080652Z 03006KT 10/01 A299 RMK A01 T01000012  RH  054%=      5-min Rain = 0
KST2 080653Z 03005KT 10/01 A299 RMK A01 T01020013  RH  054%=      5-min Rain = 0
KST2 080654Z 03005KT 10/01 A299 RMK A01 T01020013  RH  054%=      5-min Rain = 0
KST2 080655Z 03005KT 10/01 A299 RMK A01 T01020014  RH  054%=      5-min Rain = 0
KST2 080656Z 04005KT 10/01 A299 RMK A01 T01010014  RH  055%=      5-min Rain = 0
KST2 080657Z 04005KT 10/01 A299 RMK A01 T01000014  RH  055%=      5-min Rain = 0
KST2 080658Z 04005KT 10/01 A299 RMK A01 T01000014  RH  055%=      5-min Rain = 0
KST2 080659Z 03005KT 10/01 A299 RMK A01 T01000014  RH  055%=      5-min Rain = 0
KST2 080700Z 03005KT 10/01 A299 RMK A01 T01000014  RH  055%=      5-min Rain = 0
KST2 080701Z 03005KT 10/01 A299 RMK A01 T01000013  RH  055%=      5-min Rain = 0
KST2 080702Z 03004KT 10/01 A299 RMK A01 T01000012  RH  054%=      5-min Rain = 0
KST2 080703Z 03004KT 10/01 A299 RMK A01 T01010012  RH  054%=      5-min Rain = 0
KST2 080704Z 04005KT 10/01 A299 RMK A01 T01030011  RH  053%=      5-min Rain = 0
KST2 080705Z 05005KT 10/01 A299 RMK A01 T01040011  RH  052%=      5-min Rain = 0
KST2 080706Z 06005KT 11/01 A299 RMK A01 T01060011  RH  052%=      5-min Rain = 0
KST2 080707Z 06005KT 11/01 A299 RMK A01 T01080012  RH  051%=      5-min Rain = 0
KST2 080708Z 06006KT 11/01 A299 RMK A01 T01100011  RH  051%=      5-min Rain = 0
KST2 080709Z 04007KT 11/01 A299 RMK A01 T01110012  RH  050%=      5-min Rain = 0
KST2 080710Z 04006KT 11/01 A299 RMK A01 T01110012  RH  051%=      5-min Rain = 0
KST2 080711Z 04006KT 11/01 A299 RMK A01 T01080012  RH  051%=      5-min Rain = 0
KST2 080712Z 05006KT 11/01 A299 RMK A01 T01070012  RH  052%=      5-min Rain = 0
KST2 080713Z 05006KT 11/01 A299 RMK A01 T01080013  RH  052%=      5-min Rain = 0
KST2 080714Z 04006KT 11/01 A299 RMK A01 T01090013  RH  052%=      5-min Rain = 0
KST2 080715Z 05006KT 11/01 A299 RMK A01 T01100013  RH  051%=      5-min Rain = 0
KST2 080716Z 05006KT 11/01 A299 RMK A01 T01110013  RH  051%=      5-min Rain = 0
KST2 080717Z 05006KT 11/01 A299 RMK A01 T01110013  RH  051%=      5-min Rain = 0
KST2 080718Z 05006KT 11/01 A299 RMK A01 T01120014  RH  051%=      5-min Rain = 0
KST2 080719Z 05006KT 11/01 A299 RMK A01 T01130014  RH  051%=      5-min Rain = 0
KST2 080720Z 04007KT 11/02 A299 RMK A01 T01140015  RH  050%=      5-min Rain = 0
KST2 080721Z 06006KT 11/01 A299 RMK A01 T01130014  RH  050%=      5-min Rain = 0
KST2 080722Z 06006KT 11/01 A299 RMK A01 T01120013  RH  051%=      5-min Rain = 0
KST2 080723Z 07006KT 11/01 A299 RMK A01 T01110014  RH  051%=      5-min Rain = 0
KST2 080724Z 06005KT 11/01 A299 RMK A01 T01110014  RH  051%=      5-min Rain = 0
KST2 080725Z 06006KT 11/01 A299 RMK A01 T01110014  RH  051%=      5-min Rain = 0
KST2 080726Z 06007KT 11/01 A299 RMK A01 T01110014  RH  051%=      5-min Rain = 0
KST2 080727Z 07007KT 11/01 A299 RMK A01 T01110014  RH  051%=      5-min Rain = 0
KST2 080728Z 07007KT 11/01 A299 RMK A01 T01080013  RH  052%=      5-min Rain = 0
KST2 080729Z 06006KT 11/01 A299 RMK A01 T01050012  RH  053%=      5-min Rain = 0
KST2 080730Z 07007KT 10/01 A299 RMK A01 T01040014  RH  054%=      5-min Rain = 0
KST2 080731Z 08007KT 10/02 A299 RMK A01 T01040015  RH  054%=      5-min Rain = 0
KST2 080732Z 09007KT 11/02 A2989 RMK A01 T01050015  RH  054%=      5-min Rain = 0
KST2 080733Z 09007KT 11/02 A2989 RMK A01 T01060015  RH  053%=      5-min Rain = 0
KST2 080734Z 09007KT 11/01 A2989 RMK A01 T01070014  RH  052%=      5-min Rain = 0
KST2 080735Z 10007KT 11/01 A2989 RMK A01 T01080013  RH  052%=      5-min Rain = 0
KST2 080736Z 10007KT 11/01 A2989 RMK A01 T01100012  RH  051%=      5-min Rain = 0
KST2 080737Z 10007KT 11/01 A2989 RMK A01 T01110011  RH  050%=      5-min Rain = 0
KST2 080738Z 11007KT 11/01 A2989 RMK A01 T01120011  RH  050%=      5-min Rain = 0
KST2 080739Z 10007KT 11/01 A2989 RMK A01 T01140012  RH  049%=      5-min Rain = 0
KST2 080740Z 11007KT 11/01 A2989 RMK A01 T01140011  RH  049%=      5-min Rain = 0
KST2 080741Z 11006KT 12/01 A2989 RMK A01 T01150009  RH  048%=      5-min Rain = 0
KST2 080742Z 11006KT 12/01 A2989 RMK A01 T01150008  RH  048%=      5-min Rain = 0
KST2 080743Z 11006KT 11/01 A2989 RMK A01 T01130006  RH  047%=      5-min Rain = 0
KST2 080744Z 11006KT 11/01 A2989 RMK A01 T01130006  RH  048%=      5-min Rain = 0
KST2 080745Z 11006KT 11/01 A2989 RMK A01 T01130005  RH  047%=      5-min Rain = 0
KST2 080746Z 11006KT 11/01 A2989 RMK A01 T01130005  RH  047%=      5-min Rain = 0
KST2 080747Z 11006KT 11/00 A2989 RMK A01 T01130004  RH  047%=      5-min Rain = 0
KST2 080748Z 11005KT 11/00 A2989 RMK A01 T01120003  RH  047%=      5-min Rain = 0
KST2 080749Z 11005KT 11/00 A2989 RMK A01 T01120001  RH  047%=      5-min Rain = 0
KST2 080750Z 11005KT 11/00 A2989 RMK A01 T01110001  RH  047%=      5-min Rain = 0
KST2 080751Z 11005KT 11/00 A2989 RMK A01 T01110002  RH  047%=      5-min Rain = 0
KST2 080752Z 11005KT 11/00 A2989 RMK A01 T01110002  RH  047%=      5-min Rain = 0
KST2 080753Z 11005KT 11/00 A2989 RMK A01 T01100003  RH  047%=      5-min Rain = 0
KST2 080754Z 11005KT 11/00 A2989 RMK A01 T01100003  RH  048%=      5-min Rain = 0
KST2 080755Z 11005KT 11/00 A2989 RMK A01 T01090004  RH  048%=      5-min Rain = 0
KST2 080756Z 11004KT 11/00 A2989 RMK A01 T01090004  RH  048%=      5-min Rain = 0
KST2 080757Z 12004KT 11/00 A2989 RMK A01 T01080002  RH  048%=      5-min Rain = 0
KST2 080758Z 12004KT 11/00 A2989 RMK A01 T01070002  RH  048%=      5-min Rain = 0
KST2 080759Z 13004KT 11/00 A2989 RMK A01 T01060003  RH  049%=      5-min Rain = 0
KST2 080800Z 14004KT 11/00 A2989 RMK A01 T01060004  RH  049%=      5-min Rain = 0
KST2 080801Z 14004KT 11/01 A2989 RMK A01 T01060005  RH  050%=      5-min Rain = 0
KST2 080802Z 14004KT 11/01 A2989 RMK A01 T01050005  RH  050%=      5-min Rain = 0
KST2 080803Z 14004KT 11/01 A2989 RMK A01 T01050006  RH  050%=      5-min Rain = 0
KST2 080804Z 14004KT 10/01 A2989 RMK A01 T01040006  RH  051%=      5-min Rain = 0
KST2 080805Z 14004KT 10/01 A2989 RMK A01 T01030007  RH  051%=      5-min Rain = 0
KST2 080806Z 14004KT 10/01 A2989 RMK A01 T01020007  RH  052%=      5-min Rain = 0
KST2 080807Z 14004KT 10/01 A2989 RMK A01 T01010007  RH  052%=      5-min Rain = 0
KST2 080808Z 14004KT 10/01 A2989 RMK A01 T01010007  RH  052%=      5-min Rain = 0
KST2 080809Z 15004KT 10/01 A2989 RMK A01 T01010007  RH  052%=      5-min Rain = 0
KST2 080810Z 15004KT 10/01 A2989 RMK A01 T01010008  RH  052%=      5-min Rain = 0
KST2 080811Z 15004KT 10/01 A2989 RMK A01 T01010008  RH  052%=      5-min Rain = 0
KST2 080812Z 15004KT 10/01 A2989 RMK A01 T01010008  RH  052%=      5-min Rain = 0
KST2 080813Z 15004KT 10/01 A2989 RMK A01 T01010008  RH  052%=      5-min Rain = 0
KST2 080814Z 15004KT 10/01 A2989 RMK A01 T01000008  RH  053%=      5-min Rain = 0
KST2 080815Z 16004KT 10/01 A2989 RMK A01 T00990007  RH  053%=      5-min Rain = 0
KST2 080816Z 16003KT 10/01 A2989 RMK A01 T00990008  RH  053%=      5-min Rain = 0
KST2 080817Z 16003KT 10/01 A2989 RMK A01 T00990009  RH  053%=      5-min Rain = 0
KST2 080818Z 16003KT 10/01 A2989 RMK A01 T00990009  RH  053%=      5-min Rain = 0
KST2 080819Z 15003KT 10/01 A2989 RMK A01 T01000009  RH  053%=      5-min Rain = 0
KST2 080820Z 15003KT 10/01 A2989 RMK A01 T01000010  RH  053%=      5-min Rain = 0
KST2 080821Z 15003KT 10/01 A2989 RMK A01 T01000011  RH  054%=      5-min Rain = 0
KST2 080822Z 15003KT 10/01 A2989 RMK A01 T00980012  RH  055%=      5-min Rain = 0
KST2 080823Z 15003KT 10/01 A2989 RMK A01 T00970011  RH  055%=      5-min Rain = 0
KST2 080824Z 16003KT 10/01 A2989 RMK A01 T00970012  RH  055%=      5-min Rain = 0
KST2 080825Z 15003KT 10/01 A2989 RMK A01 T00970011  RH  055%=      5-min Rain = 0
KST2 080826Z 15002KT 10/01 A2989 RMK A01 T00970011  RH  055%=      5-min Rain = 0
KST2 080827Z 15003KT 10/01 A2989 RMK A01 T00970011  RH  055%=      5-min Rain = 0
KST2 080828Z 15003KT 10/01 A2989 RMK A01 T00980011  RH  055%=      5-min Rain = 0
KST2 080829Z 15003KT 10/01 A2989 RMK A01 T00980011  RH  055%=      5-min Rain = 0
KST2 080830Z 15003KT 10/01 A2989 RMK A01 T00980009  RH  054%=      5-min Rain = 0
KST2 080831Z 15003KT 10/01 A2989 RMK A01 T00990009  RH  054%=      5-min Rain = 0
KST2 080832Z 15003KT 10/01 A2989 RMK A01 T00990009  RH  054%=      5-min Rain = 0
KST2 080833Z 16002KT 10/01 A2989 RMK A01 T00990010  RH  054%=      5-min Rain = 0
KST2 080834Z 16002KT 10/01 A2989 RMK A01 T00990011  RH  054%=      5-min Rain = 0
KST2 080835Z 17002KT 10/01 A2989 RMK A01 T00990011  RH  054%=      5-min Rain = 0
KST2 080836Z 17002KT 10/01 A2989 RMK A01 T00990011  RH  054%=      5-min Rain = 0
KST2 080837Z 16002KT 10/01 A2989 RMK A01 T00990011  RH  054%=      5-min Rain = 0
KST2 080838Z 16002KT 10/01 A2989 RMK A01 T00990012  RH  055%=      5-min Rain = 0
KST2 080839Z 16002KT 10/01 A2989 RMK A01 T00990012  RH  055%=      5-min Rain = 0
KST2 080840Z 17002KT 10/01 A2989 RMK A01 T00990013  RH  055%=      5-min Rain = 0
KST2 080841Z 18002KT 10/01 A2989 RMK A01 T00980014  RH  056%=      5-min Rain = 0
KST2 080842Z 17002KT 10/01 A2989 RMK A01 T00970013  RH  056%=      5-min Rain = 0
KST2 080843Z 17003KT 10/01 A2989 RMK A01 T00970014  RH  056%=      5-min Rain = 0
KST2 080844Z 17003KT 10/01 A2989 RMK A01 T00960013  RH  056%=      5-min Rain = 0
KST2 080845Z 18003KT 10/01 A2989 RMK A01 T00970014  RH  056%=      5-min Rain = 0
KST2 080846Z 18003KT 10/01 A2989 RMK A01 T00960013  RH  056%=      5-min Rain = 0
KST2 080847Z 18003KT 10/01 A2989 RMK A01 T00960013  RH  056%=      5-min Rain = 0
KST2 080848Z 19004KT 10/01 A2989 RMK A01 T00950014  RH  057%=      5-min Rain = 0
KST2 080849Z 19004KT 09/02 A2989 RMK A01 T00940015  RH  058%=      5-min Rain = 0
KST2 080850Z 19004KT 09/02 A2989 RMK A01 T00910015  RH  059%=      5-min Rain = 0
KST2 080851Z 19004KT 09/02 A2989 RMK A01 T00890015  RH  060%=      5-min Rain = 0
KST2 080852Z 19004KT 09/01 A2989 RMK A01 T00880014  RH  060%=      5-min Rain = 0
KST2 080853Z 19004KT 09/01 A2989 RMK A01 T00870014  RH  060%=      5-min Rain = 0
KST2 080854Z 19004KT 09/01 A2989 RMK A01 T00860013  RH  060%=      5-min Rain = 0
KST2 080855Z 19004KT 09/01 A2989 RMK A01 T00860013  RH  060%=      5-min Rain = 0
KST2 080856Z 19004KT 09/01 A2989 RMK A01 T00860013  RH  060%=      5-min Rain = 0
KST2 080857Z 19004KT 09/01 A2989 RMK A01 T00860013  RH  060%=      5-min Rain = 0
KST2 080858Z 19004KT 09/01 A2989 RMK A01 T00850014  RH  061%=      5-min Rain = 0
KST2 080859Z 19004KT 09/01 A2989 RMK A01 T00850014  RH  061%=      5-min Rain = 0
KST2 080900Z 19004KT 08/01 A2989 RMK A01 T00840014  RH  061%=      5-min Rain = 0
KST2 080901Z 19004KT 08/01 A2989 RMK A01 T00840014  RH  062%=      5-min Rain = 0
KST2 080902Z 19004KT 08/01 A2989 RMK A01 T00830014  RH  062%=      5-min Rain = 0
KST2 080903Z 19004KT 08/01 A2989 RMK A01 T00830014  RH  062%=      5-min Rain = 0
KST2 080904Z 19004KT 08/01 A2989 RMK A01 T00830013  RH  061%=      5-min Rain = 0
KST2 080905Z 20005KT 08/01 A2989 RMK A01 T00840013  RH  061%=      5-min Rain = 0
KST2 080906Z 19005KT 08/01 A2989 RMK A01 T00840013  RH  061%=      5-min Rain = 0
KST2 080907Z 20005KT 08/01 A2989 RMK A01 T00840013  RH  061%=      5-min Rain = 0
KST2 080908Z 19004KT 08/01 A2989 RMK A01 T00830012  RH  061%=      5-min Rain = 0
KST2 080909Z 19004KT 08/01 A2989 RMK A01 T00830011  RH  060%=      5-min Rain = 0
KST2 080910Z 18003KT 08/01 A2989 RMK A01 T00830011  RH  060%=      5-min Rain = 0
KST2 080911Z 17003KT 08/01 A2989 RMK A01 T00840011  RH  060%=      5-min Rain = 0
KST2 080912Z 18004KT 08/01 A2989 RMK A01 T00840011  RH  060%=      5-min Rain = 0
KST2 080913Z 18004KT 08/01 A2989 RMK A01 T00840011  RH  060%=      5-min Rain = 0
KST2 080914Z 18004KT 09/01 A2989 RMK A01 T00850011  RH  060%=      5-min Rain = 0
KST2 080915Z 18004KT 09/01 A2989 RMK A01 T00850012  RH  060%=      5-min Rain = 0
KST2 080916Z 18004KT 09/01 A2989 RMK A01 T00850012  RH  060%=      5-min Rain = 0
KST2 080917Z 18004KT 09/01 A2989 RMK A01 T00850011  RH  060%=      5-min Rain = 0
KST2 080918Z 18003KT 09/01 A2989 RMK A01 T00860011  RH  059%=      5-min Rain = 0
KST2 080919Z 18004KT 09/01 A2989 RMK A01 T00860010  RH  059%=      5-min Rain = 0
KST2 080920Z 17004KT 09/01 A2989 RMK A01 T00870009  RH  058%=      5-min Rain = 0
KST2 080921Z 17004KT 09/01 A2989 RMK A01 T00880008  RH  057%=      5-min Rain = 0
KST2 080922Z 17004KT 09/01 A2989 RMK A01 T00890008  RH  057%=      5-min Rain = 0
KST2 080923Z 17004KT 09/01 A2989 RMK A01 T00900008  RH  056%=      5-min Rain = 0
KST2 080924Z 17004KT 09/01 A2989 RMK A01 T00910007  RH  056%=      5-min Rain = 0
KST2 080925Z 17004KT 09/01 A2989 RMK A01 T00920007  RH  055%=      5-min Rain = 0
KST2 080926Z 17004KT 09/01 A2989 RMK A01 T00930005  RH  054%=      5-min Rain = 0
KST2 080927Z 17003KT 09/01 A2989 RMK A01 T00940005  RH  054%=      5-min Rain = 0
KST2 080928Z 17003KT 10/01 A2989 RMK A01 T00950005  RH  053%=      5-min Rain = 0
KST2 080929Z 17003KT 10/00 A2989 RMK A01 T00950004  RH  053%=      5-min Rain = 0
KST2 080930Z 16003KT 10/00 A2989 RMK A01 T00960004  RH  053%=      5-min Rain = 0
KST2 080931Z 16002KT 10/01 A2989 RMK A01 T00960005  RH  053%=      5-min Rain = 0
KST2 080932Z 16002KT 10/01 A2989 RMK A01 T00960007  RH  054%=      5-min Rain = 0
KST2 080933Z 16002KT 10/01 A2989 RMK A01 T00950008  RH  055%=      5-min Rain = 0
KST2 080934Z 16002KT 09/01 A2989 RMK A01 T00940007  RH  055%=      5-min Rain = 0
KST2 080935Z 16002KT 09/01 A2989 RMK A01 T00930007  RH  055%=      5-min Rain = 0
KST2 080936Z 16002KT 09/01 A2989 RMK A01 T00930006  RH  054%=      5-min Rain = 0
KST2 080937Z 16002KT 09/01 A2989 RMK A01 T00930006  RH  055%=      5-min Rain = 0
KST2 080938Z 16002KT 09/01 A2988 RMK A01 T00930005  RH  054%=      5-min Rain = 0
KST2 080939Z 16002KT 09/01 A2988 RMK A01 T00930005  RH  054%=      5-min Rain = 0
KST2 080940Z 16002KT 09/00 A2988 RMK A01 T00930003  RH  054%=      5-min Rain = 0
KST2 080941Z 16003KT 09/00 A2988 RMK A01 T00920003  RH  054%=      5-min Rain = 0
KST2 080942Z 16003KT 09/00 A2988 RMK A01 T00920003  RH  053%=      5-min Rain = 0
KST2 080943Z 16002KT 09/00 A2988 RMK A01 T00930003  RH  054%=      5-min Rain = 0
KST2 080944Z 16002KT 09/00 A2988 RMK A01 T00920004  RH  054%=      5-min Rain = 0
KST2 080945Z 16002KT 09/00 A2988 RMK A01 T00920004  RH  054%=      5-min Rain = 0
KST2 080946Z 16001KT 09/01 A2988 RMK A01 T00930006  RH  054%=      5-min Rain = 0
KST2 080947Z 16001KT 09/01 A2988 RMK A01 T00910006  RH  055%=      5-min Rain = 0
KST2 080948Z 16002KT 09/01 A2988 RMK A01 T00910005  RH  055%=      5-min Rain = 0
KST2 080949Z 16002KT 09/01 A2989 RMK A01 T00910005  RH  055%=      5-min Rain = 0
KST2 080950Z 16002KT 09/01 A2989 RMK A01 T00920005  RH  054%=      5-min Rain = 0
KST2 080951Z 16002KT 09/00 A2988 RMK A01 T00920004  RH  054%=      5-min Rain = 0
KST2 080952Z 16002KT 09/00 A2988 RMK A01 T00930004  RH  054%=      5-min Rain = 0
KST2 080953Z 16002KT 09/00 A2988 RMK A01 T00930004  RH  054%=      5-min Rain = 0
KST2 080954Z 16002KT 09/00 A2988 RMK A01 T00930004  RH  054%=      5-min Rain = 0
KST2 080955Z 16002KT 09/00 A2988 RMK A01 T00930003  RH  053%=      5-min Rain = 0
KST2 080956Z 16002KT 09/00 A2988 RMK A01 T00930003  RH  053%=      5-min Rain = 0
KST2 080957Z 16002KT 09/00 A2989 RMK A01 T00930003  RH  053%=      5-min Rain = 0
KST2 080958Z 16002KT 09/00 A2988 RMK A01 T00930004  RH  054%=      5-min Rain = 0
KST2 080959Z 16002KT 09/00 A2989 RMK A01 T00920003  RH  054%=      5-min Rain = 0
KST2 081000Z 16001KT 09/00 A2989 RMK A01 T00910003  RH  054%=      5-min Rain = 0
KST2 081001Z 16001KT 09/00 A2988 RMK A01 T00910003  RH  054%=      5-min Rain = 0
KST2 081002Z 16001KT 09/00 A2988 RMK A01 T00910004  RH  054%=      5-min Rain = 0
KST2 081003Z 16001KT 09/00 A2988 RMK A01 T00890003  RH  055%=      5-min Rain = 0
KST2 081004Z 16001KT 09/00 A2988 RMK A01 T00880003  RH  055%=      5-min Rain = 0
KST2 081005Z 15002KT 09/00 A2988 RMK A01 T00880003  RH  055%=      5-min Rain = 0
KST2 081006Z 15001KT 09/00 A2988 RMK A01 T00870004  RH  056%=      5-min Rain = 0
KST2 081007Z 15002KT 09/00 A2988 RMK A01 T00850003  RH  056%=      5-min Rain = 0
KST2 081008Z 15002KT 09/00 A2988 RMK A01 T00850002  RH  056%=      5-min Rain = 0
KST2 081009Z 15002KT 09/00 A2988 RMK A01 T00850002  RH  056%=      5-min Rain = 0
KST2 081010Z 15002KT 09/00 A2988 RMK A01 T00860001  RH  055%=      5-min Rain = 0
KST2 081011Z 15002KT 09/00 A2988 RMK A01 T00870002  RH  055%=      5-min Rain = 0
KST2 081012Z 15002KT 09/00 A2988 RMK A01 T00870002  RH  055%=      5-min Rain = 0
KST2 081013Z 15002KT 09/00 A2988 RMK A01 T00870002  RH  055%=      5-min Rain = 0
KST2 081014Z 15002KT 09/00 A2988 RMK A01 T00860003  RH  056%=      5-min Rain = 0
KST2 081015Z 15002KT 08/00 A2988 RMK A01 T00840003  RH  057%=      5-min Rain = 0
KST2 081016Z 15002KT 08/00 A2988 RMK A01 T00820003  RH  057%=      5-min Rain = 0
KST2 081017Z 15002KT 08/00 A2988 RMK A01 T00810002  RH  057%=      5-min Rain = 0
KST2 081018Z 15002KT 08/00 A2988 RMK A01 T00810001  RH  057%=      5-min Rain = 0
KST2 081019Z 15002KT 08/00 A2988 RMK A01 T00820001  RH  057%=      5-min Rain = 0
KST2 081020Z 15002KT 08/00 A2988 RMK A01 T00830001  RH  056%=      5-min Rain = 0
KST2 081021Z 15002KT 08/00 A2988 RMK A01 T00840001  RH  056%=      5-min Rain = 0
KST2 081022Z 15002KT 09/00 A2988 RMK A01 T00850001  RH  055%=      5-min Rain = 0
KST2 081023Z 15002KT 09/00 A2988 RMK A01 T00860000  RH  055%=      5-min Rain = 0
KST2 081024Z 15002KT 09/00 A2988 RMK A01 T00870001  RH  055%=      5-min Rain = 0
KST2 081025Z 15002KT 09/00 A2988 RMK A01 T00880001  RH  054%=      5-min Rain = 0
KST2 081026Z 15002KT 09/00 A2988 RMK A01 T008800-0  RH  054%=      5-min Rain = 0
KST2 081027Z 15002KT 09/00 A2988 RMK A01 T00890001  RH  054%=      5-min Rain = 0
KST2 081028Z 15002KT 09/00 A2988 RMK A01 T00890001  RH  054%=      5-min Rain = 0
KST2 081029Z 15001KT 09/00 A2988 RMK A01 T00880001  RH  054%=      5-min Rain = 0
KST2 081030Z 15001KT 09/00 A2988 RMK A01 T00880001  RH  054%=      5-min Rain = 0
KST2 081031Z 15001KT 09/00 A2988 RMK A01 T00880001  RH  054%=      5-min Rain = 0
KST2 081032Z 14001KT 09/00 A2988 RMK A01 T00880001  RH  054%=      5-min Rain = 0
KST2 081033Z 14001KT 09/00 A2988 RMK A01 T00880001  RH  054%=      5-min Rain = 0
KST2 081034Z 14001KT 09/00 A2988 RMK A01 T00880001  RH  054%=      5-min Rain = 0
KST2 081035Z 14001KT 09/00 A2988 RMK A01 T00880001  RH  054%=      5-min Rain = 0
KST2 081036Z 14001KT 09/00 A2988 RMK A01 T00880001  RH  054%=      5-min Rain = 0
KST2 081037Z 14001KT 09/00 A2988 RMK A01 T00880001  RH  054%=      5-min Rain = 0
KST2 081038Z 14001KT 09/00 A2988 RMK A01 T00880001  RH  054%=      5-min Rain = 0
KST2 081039Z 14001KT 09/00 A2988 RMK A01 T00880000  RH  054%=      5-min Rain = 0
KST2 081040Z 14000KT 09/00 A2988 RMK A01 T00890000  RH  054%=      5-min Rain = 0
KST2 081041Z 14001KT 09/00 A2988 RMK A01 T00890000  RH  054%=      5-min Rain = 0
KST2 081042Z 14001KT 09/00 A2988 RMK A01 T00890000  RH  054%=      5-min Rain = 0
KST2 081043Z 14001KT 09/00 A2988 RMK A01 T00890000  RH  054%=      5-min Rain = 0
KST2 081044Z 14001KT 09/00 A2988 RMK A01 T00890000  RH  054%=      5-min Rain = 0
KST2 081045Z 14001KT 09/00 A2988 RMK A01 T00900001  RH  054%=      5-min Rain = 0
KST2 081046Z 14001KT 09/00 A2988 RMK A01 T00900001  RH  053%=      5-min Rain = 0
KST2 081047Z 14002KT 09/00 A2988 RMK A01 T00900000  RH  053%=      5-min Rain = 0
KST2 081048Z 15002KT 09/00 A2989 RMK A01 T00900001  RH  053%=      5-min Rain = 0
KST2 081049Z 15001KT 09/00 A2989 RMK A01 T00900000  RH  053%=      5-min Rain = 0
KST2 081050Z 15001KT 09/00 A2989 RMK A01 T00900001  RH  053%=      5-min Rain = 0
KST2 081051Z 15001KT 09/00 A2989 RMK A01 T00900001  RH  053%=      5-min Rain = 0
KST2 081052Z 15001KT 09/00 A2989 RMK A01 T00900001  RH  054%=      5-min Rain = 0
KST2 081053Z 15001KT 09/00 A2989 RMK A01 T00900001  RH  054%=      5-min Rain = 0
KST2 081054Z 15001KT 09/00 A2989 RMK A01 T00900000  RH  053%=      5-min Rain = 0
KST2 081055Z 16002KT 09/00 A2989 RMK A01 T00910001  RH  053%=      5-min Rain = 0
KST2 081056Z 16002KT 09/00 A2989 RMK A01 T00910001  RH  053%=      5-min Rain = 0
KST2 081057Z 17002KT 09/00 A2989 RMK A01 T00910001  RH  053%=      5-min Rain = 0
KST2 081058Z 18002KT 09/00 A2989 RMK A01 T00910003  RH  054%=      5-min Rain = 0
KST2 081059Z 18002KT 09/01 A2989 RMK A01 T00910005  RH  055%=      5-min Rain = 0
KST2 081100Z 18002KT 09/01 A2989 RMK A01 T00910006  RH  055%=      5-min Rain = 0
KST2 081101Z 18002KT 09/00 A2989 RMK A01 T00910003  RH  054%=      5-min Rain = 0
KST2 081102Z 18002KT 09/00 A2988 RMK A01 T00910001  RH  053%=      5-min Rain = 0
KST2 081103Z 18002KT 09/00 A2988 RMK A01 T00910001  RH  053%=      5-min Rain = 0
KST2 081104Z 18002KT 09/00 A2988 RMK A01 T00910000  RH  053%=      5-min Rain = 0
KST2 081105Z 17002KT 09/00 A2988 RMK A01 T00910001  RH  053%=      5-min Rain = 0
KST2 081106Z 17002KT 09/00 A2988 RMK A01 T00910002  RH  054%=      5-min Rain = 0
KST2 081107Z 17002KT 09/00 A2988 RMK A01 T00900002  RH  054%=      5-min Rain = 0
KST2 081108Z 17002KT 09/00 A2988 RMK A01 T00890002  RH  054%=      5-min Rain = 0
KST2 081109Z 17002KT 09/00 A2988 RMK A01 T00890002  RH  055%=      5-min Rain = 0
KST2 081110Z 17002KT 09/00 A2988 RMK A01 T00890004  RH  055%=      5-min Rain = 0
KST2 081111Z 16002KT 09/00 A2988 RMK A01 T00880004  RH  056%=      5-min Rain = 0
KST2 081112Z 16002KT 09/00 A2988 RMK A01 T00870004  RH  056%=      5-min Rain = 0
KST2 081113Z 17002KT 09/01 A2988 RMK A01 T00870005  RH  057%=      5-min Rain = 0
KST2 081114Z 17002KT 09/01 A2988 RMK A01 T00860007  RH  058%=      5-min Rain = 0
KST2 081115Z 17002KT 08/01 A2988 RMK A01 T00840007  RH  058%=      5-min Rain = 0
KST2 081116Z 18002KT 08/01 A2988 RMK A01 T00840006  RH  058%=      5-min Rain = 0
KST2 081117Z 18002KT 08/01 A2988 RMK A01 T00840005  RH  057%=      5-min Rain = 0
KST2 081118Z 18002KT 08/00 A2988 RMK A01 T00840003  RH  057%=      5-min Rain = 0
KST2 081119Z 18001KT 08/00 A2988 RMK A01 T00840001  RH  056%=      5-min Rain = 0
KST2 081120Z 16001KT 08/00 A2988 RMK A01 T00840001  RH  056%=      5-min Rain = 0
KST2 081121Z 15001KT 09/00 A2988 RMK A01 T00850000  RH  055%=      5-min Rain = 0
KST2 081122Z 16001KT 09/00 A2988 RMK A01 T00860000  RH  055%=      5-min Rain = 0
KST2 081123Z 15001KT 09/00 A2988 RMK A01 T008600-0  RH  054%=      5-min Rain = 0
KST2 081124Z 15001KT 09/00 A2988 RMK A01 T008700-0  RH  054%=      5-min Rain = 0
KST2 081125Z 16001KT 09/M00 A2988 RMK A01 T00871001  RH  054%=      5-min Rain = 0
KST2 081126Z 15001KT 09/M00 A2988 RMK A01 T00871001  RH  054%=      5-min Rain = 0
KST2 081127Z 15001KT 09/00 A2988 RMK A01 T008700-0  RH  054%=      5-min Rain = 0
KST2 081128Z 15001KT 09/00 A2988 RMK A01 T008700-0  RH  054%=      5-min Rain = 0
KST2 081129Z 15001KT 09/00 A2988 RMK A01 T00870000  RH  055%=      5-min Rain = 0
KST2 081130Z 15001KT 09/00 A2988 RMK A01 T00860000  RH  055%=      5-min Rain = 0
KST2 081131Z 15001KT 09/00 A2988 RMK A01 T00860000  RH  055%=      5-min Rain = 0
KST2 081132Z 15001KT 09/00 A2988 RMK A01 T00860000  RH  055%=      5-min Rain = 0
KST2 081133Z 14001KT 09/00 A2988 RMK A01 T00850000  RH  055%=      5-min Rain = 0
KST2 081134Z 14001KT 09/00 A2988 RMK A01 T00850000  RH  055%=      5-min Rain = 0
KST2 081135Z 13001KT 09/00 A2988 RMK A01 T00850001  RH  056%=      5-min Rain = 0
KST2 081136Z 11001KT 08/00 A2988 RMK A01 T00840002  RH  056%=      5-min Rain = 0
KST2 081137Z 10001KT 08/00 A2988 RMK A01 T00830004  RH  058%=      5-min Rain = 0
KST2 081138Z 09001KT 08/01 A2987 RMK A01 T00830005  RH  058%=      5-min Rain = 0
KST2 081139Z 09001KT 08/00 A2987 RMK A01 T00820003  RH  057%=      5-min Rain = 0
KST2 081140Z 10001KT 08/00 A2987 RMK A01 T00820001  RH  057%=      5-min Rain = 0
KST2 081141Z 10001KT 08/00 A2987 RMK A01 T00820001  RH  057%=      5-min Rain = 0
KST2 081142Z 10001KT 08/00 A2987 RMK A01 T00820001  RH  057%=      5-min Rain = 0
KST2 081143Z 10001KT 08/00 A2987 RMK A01 T00810002  RH  057%=      5-min Rain = 0
KST2 081144Z 10001KT 08/00 A2988 RMK A01 T00810002  RH  057%=      5-min Rain = 0
KST2 081145Z 10001KT 08/00 A2988 RMK A01 T00810004  RH  058%=      5-min Rain = 0
KST2 081146Z 10001KT 08/00 A2988 RMK A01 T00820004  RH  058%=      5-min Rain = 0
KST2 081147Z 10001KT 08/00 A2988 RMK A01 T00820004  RH  058%=      5-min Rain = 0
KST2 081148Z 10002KT 08/00 A2988 RMK A01 T00820004  RH  058%=      5-min Rain = 0
KST2 081149Z 10002KT 08/01 A2988 RMK A01 T00820005  RH  058%=      5-min Rain = 0
KST2 081150Z 11002KT 08/01 A2988 RMK A01 T00810006  RH  059%=      5-min Rain = 0
KST2 081151Z 11002KT 08/01 A2988 RMK A01 T00800006  RH  060%=      5-min Rain = 0
KST2 081152Z 11001KT 08/01 A2988 RMK A01 T00780006  RH  060%=      5-min Rain = 0
KST2 081153Z 11002KT 08/01 A2988 RMK A01 T00770005  RH  060%=      5-min Rain = 0
KST2 081154Z 11002KT 08/00 A2988 RMK A01 T00770004  RH  060%=      5-min Rain = 0
KST2 081155Z 11002KT 08/00 A2988 RMK A01 T00770004  RH  060%=      5-min Rain = 0
KST2 081156Z 10002KT 08/00 A2988 RMK A01 T00780003  RH  059%=      5-min Rain = 0
KST2 081157Z 10003KT 08/00 A2988 RMK A01 T00800004  RH  059%=      5-min Rain = 0
KST2 081158Z 10003KT 08/00 A2988 RMK A01 T00810003  RH  058%=      5-min Rain = 0
KST2 081159Z 10003KT 08/00 A2988 RMK A01 T00820003  RH  057%=      5-min Rain = 0
KST2 081200Z 10003KT 08/00 A2988 RMK A01 T00820002  RH  057%=      5-min Rain = 0
KST2 081201Z 11003KT 08/00 A2988 RMK A01 T00820002  RH  057%=      5-min Rain = 0
KST2 081202Z 11003KT 08/00 A2988 RMK A01 T00810001  RH  057%=      5-min Rain = 0
KST2 081203Z 11003KT 08/00 A2988 RMK A01 T00810002  RH  057%=      5-min Rain = 0
KST2 081204Z 11003KT 08/00 A2988 RMK A01 T00810002  RH  057%=      5-min Rain = 0
KST2 081205Z 10003KT 08/00 A2988 RMK A01 T00820002  RH  057%=      5-min Rain = 0
KST2 081206Z 09003KT 08/00 A2988 RMK A01 T00820002  RH  057%=      5-min Rain = 0
KST2 081207Z 08003KT 08/00 A2988 RMK A01 T00820001  RH  057%=      5-min Rain = 0
KST2 081208Z 08003KT 08/M00 A2988 RMK A01 T00791001  RH  057%=      5-min Rain = 0
KST2 081209Z 08003KT 07/M00 A2988 RMK A01 T00731003  RH  058%=      5-min Rain = 0
KST2 081210Z 08003KT 07/M00 A2988 RMK A01 T00701002  RH  060%=      5-min Rain = 0
KST2 081211Z 08003KT 07/M00 A2988 RMK A01 T00691002  RH  061%=      5-min Rain = 0
KST2 081212Z 07002KT 07/M00 A2988 RMK A01 T00671003  RH  061%=      5-min Rain = 0
KST2 081213Z 08002KT 07/M00 A2988 RMK A01 T00661002  RH  062%=      5-min Rain = 0
KST2 081214Z 08002KT 07/00 A2988 RMK A01 T00650001  RH  063%=      5-min Rain = 0
KST2 081215Z 06002KT 07/00 A2988 RMK A01 T00650000  RH  064%=      5-min Rain = 0
KST2 081216Z 05002KT 06/M00 A2988 RMK A01 T00631001  RH  064%=      5-min Rain = 0
KST2 081217Z 04003KT 06/M00 A2988 RMK A01 T00621001  RH  064%=      5-min Rain = 0
KST2 081218Z 03004KT 06/M00 A2988 RMK A01 T00611001  RH  064%=      5-min Rain = 0
KST2 081219Z 02003KT 06/M00 A2988 RMK A01 T00601001  RH  065%=      5-min Rain = 0
KST2 081220Z 03003KT 06/00 A2988 RMK A01 T00590000  RH  066%=      5-min Rain = 0
KST2 081221Z 03003KT 06/00 A2988 RMK A01 T00580002  RH  067%=      5-min Rain = 0
KST2 081222Z 03002KT 06/00 A2988 RMK A01 T00590003  RH  067%=      5-min Rain = 0
KST2 081223Z 04002KT 06/00 A2988 RMK A01 T00590003  RH  067%=      5-min Rain = 0
KST2 081224Z 04002KT 06/00 A2988 RMK A01 T00590003  RH  067%=      5-min Rain = 0
KST2 081225Z 05002KT 06/00 A2988 RMK A01 T00590003  RH  067%=      5-min Rain = 0
KST2 081226Z 05002KT 06/00 A2988 RMK A01 T00600003  RH  067%=      5-min Rain = 0
KST2 081227Z 05002KT 06/00 A2988 RMK A01 T00610003  RH  066%=      5-min Rain = 0
KST2 081228Z 05002KT 06/00 A2988 RMK A01 T00630002  RH  065%=      5-min Rain = 0
KST2 081229Z 05001KT 06/00 A2988 RMK A01 T00640003  RH  065%=      5-min Rain = 0
KST2 081230Z 05001KT 07/00 A2988 RMK A01 T00650004  RH  065%=      5-min Rain = 0
KST2 081231Z 05001KT 07/00 A2988 RMK A01 T00650003  RH  064%=      5-min Rain = 0
KST2 081232Z 06001KT 07/00 A2988 RMK A01 T00650002  RH  064%=      5-min Rain = 0
KST2 081233Z 06002KT 06/00 A2988 RMK A01 T00640002  RH  065%=      5-min Rain = 0
KST2 081234Z 08002KT 07/00 A2988 RMK A01 T00660004  RH  064%=      5-min Rain = 0
KST2 081235Z 09002KT 07/00 A2988 RMK A01 T00670004  RH  064%=      5-min Rain = 0
KST2 081236Z 10002KT 07/00 A2988 RMK A01 T00680004  RH  064%=      5-min Rain = 0
KST2 081237Z 10002KT 07/00 A2988 RMK A01 T00680004  RH  063%=      5-min Rain = 0
KST2 081238Z 10002KT 07/00 A2988 RMK A01 T00690004  RH  063%=      5-min Rain = 0
KST2 081239Z 09001KT 07/01 A2989 RMK A01 T00690005  RH  063%=      5-min Rain = 0
KST2 081240Z 07001KT 07/01 A2989 RMK A01 T00690005  RH  063%=      5-min Rain = 0
KST2 081241Z 04001KT 07/01 A2989 RMK A01 T00690007  RH  065%=      5-min Rain = 0
KST2 081242Z 04001KT 07/01 A2989 RMK A01 T00680008  RH  066%=      5-min Rain = 0
KST2 081243Z 06001KT 07/01 A2989 RMK A01 T00670009  RH  066%=      5-min Rain = 0
KST2 081244Z 07001KT 07/01 A2989 RMK A01 T00670009  RH  067%=      5-min Rain = 0
KST2 081245Z 09001KT 07/01 A2989 RMK A01 T00670010  RH  067%=      5-min Rain = 0
KST2 081246Z 13002KT 07/01 A2988 RMK A01 T00680009  RH  066%=      5-min Rain = 0
KST2 081247Z 14003KT 07/01 A2988 RMK A01 T00690010  RH  066%=      5-min Rain = 0
KST2 081248Z 14003KT 07/01 A2988 RMK A01 T00690010  RH  066%=      5-min Rain = 0
KST2 081249Z 14003KT 07/01 A2988 RMK A01 T00700009  RH  065%=      5-min Rain = 0
KST2 081250Z 14002KT 07/01 A2988 RMK A01 T00710007  RH  064%=      5-min Rain = 0
KST2 081251Z 15002KT 07/01 A2988 RMK A01 T00720006  RH  063%=      5-min Rain = 0
KST2 081252Z 15002KT 07/01 A2988 RMK A01 T00730007  RH  063%=      5-min Rain = 0
KST2 081253Z 14002KT 07/01 A2989 RMK A01 T00740007  RH  062%=      5-min Rain = 0
KST2 081254Z 15002KT 08/01 A2989 RMK A01 T00770008  RH  062%=      5-min Rain = 0
KST2 081255Z 16002KT 08/01 A2989 RMK A01 T00790014  RH  063%=      5-min Rain = 0
KST2 081256Z 16002KT 08/02 A2989 RMK A01 T00800018  RH  065%=      5-min Rain = 0
KST2 081257Z 16003KT 08/02 A2989 RMK A01 T00810018  RH  065%=      5-min Rain = 0
KST2 081258Z 18003KT 08/02 A2989 RMK A01 T00820021  RH  065%=      5-min Rain = 0
KST2 081259Z 17004KT 08/02 A2988 RMK A01 T00820020  RH  065%=      5-min Rain = 0
KST2 081300Z 17004KT 08/02 A2988 RMK A01 T00830018  RH  064%=      5-min Rain = 0
KST2 081301Z 16005KT 08/01 A2988 RMK A01 T00840013  RH  061%=      5-min Rain = 0
KST2 081302Z 16005KT 09/01 A2988 RMK A01 T00850010  RH  059%=      5-min Rain = 0
KST2 081303Z 16005KT 09/01 A2988 RMK A01 T00850009  RH  059%=      5-min Rain = 0
KST2 081304Z 16005KT 09/01 A2988 RMK A01 T00860008  RH  058%=      5-min Rain = 0
KST2 081305Z 16005KT 09/01 A2988 RMK A01 T00860008  RH  058%=      5-min Rain = 0
KST2 081306Z 16004KT 09/01 A2988 RMK A01 T00850008  RH  058%=      5-min Rain = 0
KST2 081307Z 16003KT 09/01 A2989 RMK A01 T00850008  RH  058%=      5-min Rain = 0
KST2 081308Z 16002KT 09/01 A2989 RMK A01 T00850007  RH  058%=      5-min Rain = 0
KST2 081309Z 15001KT 09/01 A2989 RMK A01 T00850007  RH  058%=      5-min Rain = 0
KST2 081310Z 14001KT 09/01 A2989 RMK A01 T00860009  RH  059%=      5-min Rain = 0
KST2 081311Z 12000KT 09/01 A2989 RMK A01 T00870012  RH  059%=      5-min Rain = 0
KST2 081312Z 12000KT 09/01 A2989 RMK A01 T00880011  RH  058%=      5-min Rain = 0
KST2 081313Z 12001KT 09/01 A2989 RMK A01 T00890011  RH  058%=      5-min Rain = 0
KST2 081314Z 13002KT 09/01 A2989 RMK A01 T00900012  RH  058%=      5-min Rain = 0
KST2 081315Z 13002KT 09/01 A2989 RMK A01 T00920012  RH  057%=      5-min Rain = 0
KST2 081316Z 13002KT 09/01 A2989 RMK A01 T00940010  RH  056%=      5-min Rain = 0
KST2 081317Z 13003KT 10/01 A2989 RMK A01 T00960009  RH  055%=      5-min Rain = 0
KST2 081318Z 13003KT 10/01 A2989 RMK A01 T00980009  RH  054%=      5-min Rain = 0
KST2 081319Z 14003KT 10/01 A2989 RMK A01 T00990008  RH  053%=      5-min Rain = 0
KST2 081320Z 14004KT 10/01 A2989 RMK A01 T01010008  RH  053%=      5-min Rain = 0
KST2 081321Z 14004KT 10/01 A2989 RMK A01 T01020007  RH  052%=      5-min Rain = 0
KST2 081322Z 14004KT 10/01 A2989 RMK A01 T01030007  RH  052%=      5-min Rain = 0
KST2 081323Z 14003KT 10/01 A2989 RMK A01 T01030007  RH  051%=      5-min Rain = 0
KST2 081324Z 14003KT 10/01 A2989 RMK A01 T01040007  RH  051%=      5-min Rain = 0
KST2 081325Z 15003KT 11/01 A2989 RMK A01 T01050008  RH  051%=      5-min Rain = 0
KST2 081326Z 15003KT 11/01 A2989 RMK A01 T01060008  RH  051%=      5-min Rain = 0
KST2 081327Z 15004KT 11/01 A2989 RMK A01 T01060008  RH  051%=      5-min Rain = 0
KST2 081328Z 15004KT 11/01 A2989 RMK A01 T01060008  RH  051%=      5-min Rain = 0
KST2 081329Z 15004KT 11/01 A2989 RMK A01 T01070009  RH  051%=      5-min Rain = 0
KST2 081330Z 15004KT 11/01 A2989 RMK A01 T01080009  RH  050%=      5-min Rain = 0
KST2 081331Z 15004KT 11/01 A2989 RMK A01 T01100010  RH  050%=      5-min Rain = 0
KST2 081332Z 15004KT 11/01 A2989 RMK A01 T01110010  RH  050%=      5-min Rain = 0
KST2 081333Z 15005KT 11/01 A2989 RMK A01 T01120009  RH  049%=      5-min Rain = 0
KST2 081334Z 15004KT 11/01 A2989 RMK A01 T01130012  RH  050%=      5-min Rain = 0
KST2 081335Z 15005KT 11/01 A2989 RMK A01 T01140013  RH  050%=      5-min Rain = 0
KST2 081336Z 15004KT 11/01 A2989 RMK A01 T01140013  RH  050%=      5-min Rain = 0
KST2 081337Z 15004KT 12/02 A2989 RMK A01 T01150015  RH  050%=      5-min Rain = 0
KST2 081338Z 15003KT 12/02 A2989 RMK A01 T01170015  RH  050%=      5-min Rain = 0
KST2 081339Z 14004KT 12/02 A2989 RMK A01 T01190015  RH  049%=      5-min Rain = 0
KST2 081340Z 13004KT 12/02 A2989 RMK A01 T01210015  RH  048%=      5-min Rain = 0
KST2 081341Z 13003KT 12/02 A2989 RMK A01 T01230015  RH  048%=      5-min Rain = 0
KST2 081342Z 13004KT 12/02 A2989 RMK A01 T01240015  RH  047%=      5-min Rain = 0
KST2 081343Z 13004KT 13/02 A2989 RMK A01 T01260015  RH  047%=      5-min Rain = 0
KST2 081344Z 13004KT 13/02 A2989 RMK A01 T01260015  RH  047%=      5-min Rain = 0
KST2 081345Z 13003KT 13/02 A2989 RMK A01 T01260015  RH  047%=      5-min Rain = 0
KST2 081346Z 13003KT 13/02 A2989 RMK A01 T01270016  RH  047%=      5-min Rain = 0
KST2 081347Z 13004KT 13/02 A2989 RMK A01 T01290017  RH  047%=      5-min Rain = 0
KST2 081348Z 12003KT 13/02 A2989 RMK A01 T01300017  RH  046%=      5-min Rain = 0
KST2 081349Z 12004KT 13/02 A2989 RMK A01 T01310018  RH  046%=      5-min Rain = 0
KST2 081350Z 12004KT 13/02 A2989 RMK A01 T01320019  RH  046%=      5-min Rain = 0
KST2 081351Z 13005KT 13/02 A2989 RMK A01 T01340020  RH  046%=      5-min Rain = 0
KST2 081352Z 13005KT 13/02 A2989 RMK A01 T01340020  RH  046%=      5-min Rain = 0
KST2 081353Z 13005KT 14/02 A2989 RMK A01 T01360021  RH  046%=      5-min Rain = 0
KST2 081354Z 13004KT 14/02 A2989 RMK A01 T01380023  RH  046%=      5-min Rain = 0
KST2 081355Z 13004KT 14/02 A2989 RMK A01 T01400024  RH  045%=      5-min Rain = 0
KST2 081356Z 12004KT 14/03 A2989 RMK A01 T01420025  RH  045%=      5-min Rain = 0
KST2 081357Z 12005KT 14/02 A2989 RMK A01 T01430024  RH  045%=      5-min Rain = 0
KST2 081358Z 11004KT 14/03 A2989 RMK A01 T01440025  RH  045%=      5-min Rain = 0
KST2 081359Z 12006KT 15/03 A2989 RMK A01 T01450026  RH  044%=      5-min Rain = 0
KST2 081400Z 11005KT 15/03 A2989 RMK A01 T01470026  RH  044%=      5-min Rain = 0
KST2 081401Z 11006KT 15/03 A2989 RMK A01 T01500027  RH  044%=      5-min Rain = 0
KST2 081402Z 11005KT 15/03 A2989 RMK A01 T01520029  RH  043%=      5-min Rain = 0
KST2 081403Z 11006KT 16/03 A2989 RMK A01 T01560031  RH  043%=      5-min Rain = 0
KST2 081404Z 11006KT 16/03 A2989 RMK A01 T01570029  RH  042%=      5-min Rain = 0
KST2 081405Z 11006KT 16/03 A2989 RMK A01 T01580031  RH  042%=      5-min Rain = 0
KST2 081406Z 10005KT 16/03 A2989 RMK A01 T01600032  RH  042%=      5-min Rain = 0
KST2 081407Z 10005KT 16/03 A2989 RMK A01 T01610031  RH  042%=      5-min Rain = 0
KST2 081408Z 10005KT 16/03 A2989 RMK A01 T01620033  RH  042%=      5-min Rain = 0
KST2 081409Z 10005KT 16/04 A2989 RMK A01 T01640037  RH  043%=      5-min Rain = 0
KST2 081410Z 10005KT 17/04 A2989 RMK A01 T01660035  RH  042%=      5-min Rain = 0
KST2 081411Z 10006KT 17/03 A2989 RMK A01 T01670034  RH  041%=      5-min Rain = 0
KST2 081412Z 10006KT 17/04 A2989 RMK A01 T01680037  RH  041%=      5-min Rain = 0
KST2 081413Z 10008KT 17/03 A2989 RMK A01 T01720032  RH  039%=      5-min Rain = 0
KST2 081414Z 11008KT 17/03 A2989 RMK A01 T01740030  RH  038%=      5-min Rain = 0
KST2 081415Z 10007KT 18/03 A2989 RMK A01 T01760031  RH  038%=      5-min Rain = 0
KST2 081416Z 10008KT 18/03 A2989 RMK A01 T01780031  RH  037%=      5-min Rain = 0
KST2 081417Z 10007KT 18/03 A2989 RMK A01 T01800031  RH  037%=      5-min Rain = 0
KST2 081418Z 10007KT 18/03 A2988 RMK A01 T01800031  RH  037%=      5-min Rain = 0
KST2 081419Z 10009KT 18/03 A2988 RMK A01 T01820033  RH  037%=      5-min Rain = 0
KST2 081420Z 10009KT 18/03 A2988 RMK A01 T01840026  RH  035%=      5-min Rain = 0
KST2 081421Z 11010KT 19/02 A2988 RMK A01 T01870024  RH  034%=      5-min Rain = 0
KST2 081422Z 11009KT 19/02 A2988 RMK A01 T01890023  RH  033%=      5-min Rain = 0
KST2 081423Z 11008KT 19/03 A2988 RMK A01 T01920027  RH  033%=      5-min Rain = 0
KST2 081424Z 11009KT 19/02 A2988 RMK A01 T01940024  RH  032%=      5-min Rain = 0
KST2 081425Z 11010KT 20/02 A2988 RMK A01 T01950023  RH  032%=      5-min Rain = 0
KST2 081426Z 11011KT 20/02 A2988 RMK A01 T01950022  RH  031%=      5-min Rain = 0
KST2 081427Z 11010KT 20/02 A2988 RMK A01 T01950022  RH  031%=      5-min Rain = 0
KST2 081428Z 11010KT 20/02 A2988 RMK A01 T01960021  RH  031%=      5-min Rain = 0
KST2 081429Z 10010KT 20/02 A2988 RMK A01 T01960023  RH  031%=      5-min Rain = 0
KST2 081430Z 11010KT 20/02 A2988 RMK A01 T01970022  RH  031%=      5-min Rain = 0
KST2 081431Z 10009KT 20/02 A2988 RMK A01 T01980023  RH  031%=      5-min Rain = 0
KST2 081432Z 09008KT 20/03 A2988 RMK A01 T02000029  RH  032%=      5-min Rain = 0
KST2 081433Z 10009KT 20/03 A2988 RMK A01 T02010028  RH  032%=      5-min Rain = 0
KST2 081434Z 10008KT 20/03 A2988 RMK A01 T02020029  RH  032%=      5-min Rain = 0
KST2 081435Z 10009KT 20/03 A2988 RMK A01 T02030026  RH  031%=      5-min Rain = 0
KST2 081436Z 10009KT 20/02 A2988 RMK A01 T02030023  RH  030%=      5-min Rain = 0
KST2 081437Z 10009KT 20/03 A2988 RMK A01 T02040025  RH  031%=      5-min Rain = 0
KST2 081438Z 10010KT 20/02 A2988 RMK A01 T02040022  RH  030%=      5-min Rain = 0
KST2 081439Z 09010KT 20/02 A2988 RMK A01 T02040022  RH  030%=      5-min Rain = 0
KST2 081440Z 09011KT 21/02 A2988 RMK A01 T02050022  RH  030%=      5-min Rain = 0
KST2 081441Z 08009KT 20/02 A2988 RMK A01 T02040023  RH  030%=      5-min Rain = 0
KST2 081442Z 09008KT 20/02 A2988 RMK A01 T02040024  RH  030%=      5-min Rain = 0
KST2 081443Z 09009KT 20/02 A2987 RMK A01 T02040024  RH  030%=      5-min Rain = 0
KST2 081444Z 09009KT 21/02 A2987 RMK A01 T02050023  RH  030%=      5-min Rain = 0
KST2 081445Z 09012KT 21/02 A2987 RMK A01 T02060023  RH  030%=      5-min Rain = 0
KST2 081446Z 09012KT 21/02 A2987 RMK A01 T02070022  RH  029%=      5-min Rain = 0
KST2 081447Z 09011KT 21/02 A2987 RMK A01 T02070021  RH  029%=      5-min Rain = 0
KST2 081448Z 09011KT 21/02 A2987 RMK A01 T02070023  RH  029%=      5-min Rain = 0
KST2 081449Z 09011KT 21/02 A2987 RMK A01 T02080023  RH  029%=      5-min Rain = 0
KST2 081450Z 09010KT 21/02 A2987 RMK A01 T02080023  RH  029%=      5-min Rain = 0
KST2 081451Z 10009KT 21/02 A2987 RMK A01 T02080022  RH  029%=      5-min Rain = 0
KST2 081452Z 10010KT 21/02 A2987 RMK A01 T02080022  RH  029%=      5-min Rain = 0
KST2 081453Z 09010KT 21/02 A2987 RMK A01 T02080022  RH  029%=      5-min Rain = 0
KST2 081454Z 11011KT 21/02 A2987 RMK A01 T02090023  RH  029%=      5-min Rain = 0
KST2 081455Z 11009KT 21/02 A2987 RMK A01 T02100021  RH  029%=      5-min Rain = 0
KST2 081456Z 10011KT 21/02 A2987 RMK A01 T02110024  RH  029%=      5-min Rain = 0
KST2 081457Z 10011KT 21/02 A2987 RMK A01 T02120021  RH  028%=      5-min Rain = 0
KST2 081458Z 12010KT 21/02 A2987 RMK A01 T02130023  RH  029%=      5-min Rain = 0
KST2 081459Z 10010KT 21/02 A2987 RMK A01 T02140023  RH  028%=      5-min Rain = 0
KST2 081500Z 11011KT 21/02 A2987 RMK A01 T02140023  RH  028%=      5-min Rain = 0
KST2 081501Z 10011KT 21/02 A2987 RMK A01 T02140021  RH  028%=      5-min Rain = 0
KST2 081502Z 09012KT 21/02 A2987 RMK A01 T02130021  RH  028%=      5-min Rain = 0
KST2 081503Z 10011KT 22/02 A2986 RMK A01 T02150022  RH  028%=      5-min Rain = 0
KST2 081504Z 10012KT 22/03 A2986 RMK A01 T02170025  RH  028%=      5-min Rain = 0
KST2 081505Z 11011KT 22/02 A2986 RMK A01 T02190021  RH  027%=      5-min Rain = 0
KST2 081506Z 11011KT 22/02 A2986 RMK A01 T02180018  RH  027%=      5-min Rain = 0
KST2 081507Z 11012KT 22/02 A2986 RMK A01 T02200018  RH  026%=      5-min Rain = 0
KST2 081508Z 12014KT 22/02 A2986 RMK A01 T02200016  RH  026%=      5-min Rain = 0
KST2 081509Z 13012KT 22/01 A2986 RMK A01 T02210014  RH  025%=      5-min Rain = 0
KST2 081510Z 13012KT 22/02 A2986 RMK A01 T02210015  RH  026%=      5-min Rain = 0
KST2 081511Z 12010KT 22/02 A2986 RMK A01 T02220017  RH  026%=      5-min Rain = 0
KST2 081512Z 11010KT 23/02 A2986 RMK A01 T02250020  RH  026%=      5-min Rain = 0
KST2 081513Z 12012KT 23/02 A2986 RMK A01 T02270017  RH  025%=      5-min Rain = 0
KST2 081514Z 12011KT 23/02 A2986 RMK A01 T02290021  RH  025%=      5-min Rain = 0
KST2 081515Z 13011KT 23/02 A2986 RMK A01 T02310018  RH  025%=      5-min Rain = 0
KST2 081516Z 13011KT 23/02 A2986 RMK A01 T02310017  RH  024%=      5-min Rain = 0
KST2 081517Z 13012KT 23/02 A2986 RMK A01 T02290016  RH  025%=      5-min Rain = 0
KST2 081518Z 12012KT 23/02 A2986 RMK A01 T02290017  RH  025%=      5-min Rain = 0
KST2 081519Z 12013KT 23/02 A2986 RMK A01 T02290018  RH  025%=      5-min Rain = 0
KST2 081520Z 12012KT 23/02 A2986 RMK A01 T02290017  RH  025%=      5-min Rain = 0
KST2 081521Z 12012KT 23/02 A2985 RMK A01 T02300018  RH  025%=      5-min Rain = 0
KST2 081522Z 13012KT 23/02 A2985 RMK A01 T02300017  RH  025%=      5-min Rain = 0
KST2 081523Z 13011KT 23/02 A2985 RMK A01 T02290017  RH  025%=      5-min Rain = 0
KST2 081524Z 13011KT 23/02 A2986 RMK A01 T02290016  RH  024%=      5-min Rain = 0
KST2 081525Z 13011KT 23/02 A2986 RMK A01 T02300016  RH  024%=      5-min Rain = 0
KST2 081526Z 14011KT 23/02 A2986 RMK A01 T02300015  RH  024%=      5-min Rain = 0
KST2 081527Z 13015KT 23/02 A2986 RMK A01 T02290016  RH  024%=      5-min Rain = 0
KST2 081528Z 14012KT 23/02 A2986 RMK A01 T02300017  RH  025%=      5-min Rain = 0
KST2 081529Z 14011KT 23/02 A2986 RMK A01 T02310018  RH  025%=      5-min Rain = 0
KST2 081530Z 15012KT 23/02 A2985 RMK A01 T02330018  RH  024%=      5-min Rain = 0
KST2 081531Z 14013KT 23/02 A2986 RMK A01 T02340018  RH  024%=      5-min Rain = 0
KST2 081532Z 15011KT 23/02 A2985 RMK A01 T02340017  RH  024%=      5-min Rain = 0
KST2 081533Z 15010KT 23/02 A2985 RMK A01 T02330019  RH  025%=      5-min Rain = 0
KST2 081534Z 13011KT 23/02 A2985 RMK A01 T02340019  RH  024%=      5-min Rain = 0
KST2 081535Z 15011KT 24/02 A2985 RMK A01 T02350020  RH  024%=      5-min Rain = 0
KST2 081536Z 16011KT 24/02 A2985 RMK A01 T02370019  RH  024%=      5-min Rain = 0
KST2 081537Z 15011KT 24/02 A2985 RMK A01 T02350018  RH  024%=      5-min Rain = 0
KST2 081538Z 15009KT 23/02 A2985 RMK A01 T02310017  RH  024%=      5-min Rain = 0
KST2 081539Z 14010G15KT 23/02 A2986 RMK A01 T02300018  RH  025%=      5-min Rain = 0
KST2 081540Z 14010KT 23/02 A2986 RMK A01 T02310019  RH  025%=      5-min Rain = 0
KST2 081541Z 13010KT 23/02 A2986 RMK A01 T02310020  RH  025%=      5-min Rain = 0
KST2 081542Z 14009KT 23/02 A2986 RMK A01 T02340023  RH  025%=      5-min Rain = 0
KST2 081543Z 14009KT 24/02 A2985 RMK A01 T02390023  RH  024%=      5-min Rain = 0
KST2 081544Z 15010KT 24/02 A2985 RMK A01 T02380021  RH  024%=      5-min Rain = 0
KST2 081545Z 15007KT 24/02 A2985 RMK A01 T02370021  RH  024%=      5-min Rain = 0
KST2 081546Z 13009KT 24/02 A2985 RMK A01 T02360020  RH  024%=      5-min Rain = 0
KST2 081547Z 12011KT 23/02 A2985 RMK A01 T02340020  RH  025%=      5-min Rain = 0
KST2 081548Z 14009KT 23/02 A2985 RMK A01 T02310020  RH  025%=      5-min Rain = 0
KST2 081549Z 12009KT 23/02 A2985 RMK A01 T02320022  RH  025%=      5-min Rain = 0
KST2 081550Z 15009KT 23/02 A2985 RMK A01 T02340024  RH  025%=      5-min Rain = 0
KST2 081551Z 16009KT 24/02 A2985 RMK A01 T02370024  RH  025%=      5-min Rain = 0
KST2 081552Z 13010KT 24/03 A2985 RMK A01 T02370025  RH  025%=      5-min Rain = 0
KST2 081553Z 14012KT 24/03 A2985 RMK A01 T02390025  RH  025%=      5-min Rain = 0
KST2 081554Z 14008KT 24/03 A2985 RMK A01 T02400025  RH  024%=      5-min Rain = 0
KST2 081555Z 14009G14KT 24/02 A2985 RMK A01 T02380023  RH  024%=      5-min Rain = 0
KST2 081556Z 13011KT 24/03 A2985 RMK A01 T02390027  RH  025%=      5-min Rain = 0
KST2 081557Z 14010KT 24/02 A2985 RMK A01 T02400024  RH  024%=      5-min Rain = 0
KST2 081558Z 14012KT 24/03 A2985 RMK A01 T02400026  RH  025%=      5-min Rain = 0
KST2 081559Z 13010KT 24/03 A2985 RMK A01 T02400026  RH  025%=      5-min Rain = 0
KST2 081600Z 13010KT 24/03 A2985 RMK A01 T02400025  RH  024%=      5-min Rain = 0
KST2 081601Z 12010KT 24/02 A2985 RMK A01 T02390024  RH  025%=      5-min Rain = 0
KST2 081602Z 15009KT 24/03 A2985 RMK A01 T02390025  RH  025%=      5-min Rain = 0
KST2 081603Z 15008KT 24/03 A2985 RMK A01 T02410026  RH  025%=      5-min Rain = 0
KST2 081604Z 16009KT 24/02 A2985 RMK A01 T02430023  RH  024%=      5-min Rain = 0
KST2 081605Z 14010KT 24/02 A2985 RMK A01 T02430023  RH  024%=      5-min Rain = 0
KST2 081606Z 14010KT 24/03 A2985 RMK A01 T02430029  RH  025%=      5-min Rain = 0
KST2 081607Z 15010KT 24/03 A2985 RMK A01 T02440030  RH  025%=      5-min Rain = 0
KST2 081608Z 14012KT 25/03 A2985 RMK A01 T02450025  RH  024%=      5-min Rain = 0
KST2 081609Z 15010KT 24/02 A2985 RMK A01 T02440022  RH  023%=      5-min Rain = 0
KST2 081610Z 16011G17KT 24/03 A2985 RMK A01 T02430025  RH  024%=      5-min Rain = 0
KST2 081611Z 20011KT 25/02 A2985 RMK A01 T02480022  RH  023%=      5-min Rain = 0
KST2 081612Z 20010KT 25/02 A2985 RMK A01 T02510019  RH  022%=      5-min Rain = 0
KST2 081613Z 20012KT 25/02 A2985 RMK A01 T02530018  RH  022%=      5-min Rain = 0
KST2 081614Z 21008KT 25/02 A2985 RMK A01 T02530016  RH  021%=      5-min Rain = 0
KST2 081615Z 20005KT 25/02 A2985 RMK A01 T02500017  RH  022%=      5-min Rain = 0
KST2 081616Z 18005KT 25/02 A2985 RMK A01 T02500017  RH  022%=      5-min Rain = 0
KST2 081617Z 16011KT 25/02 A2985 RMK A01 T02510018  RH  022%=      5-min Rain = 0
KST2 081618Z 16008KT 25/02 A2985 RMK A01 T02520016  RH  021%=      5-min Rain = 0
KST2 081619Z 17012KT 25/02 A2985 RMK A01 T02520020  RH  022%=      5-min Rain = 0
KST2 081620Z 17012KT 25/02 A2985 RMK A01 T02540021  RH  022%=      5-min Rain = 0
KST2 081621Z 17011KT 25/02 A2985 RMK A01 T02540019  RH  022%=      5-min Rain = 0
KST2 081622Z 15007KT 25/02 A2985 RMK A01 T02500017  RH  022%=      5-min Rain = 0
KST2 081623Z 20011KT 25/02 A2985 RMK A01 T02480019  RH  022%=      5-min Rain = 0
KST2 081624Z 21012KT 25/01 A2985 RMK A01 T02480014  RH  022%=      5-min Rain = 0
KST2 081625Z 20009KT 25/02 A2985 RMK A01 T02470015  RH  022%=      5-min Rain = 0
KST2 081626Z 18006KT 25/01 A2985 RMK A01 T02470012  RH  021%=      5-min Rain = 0
KST2 081627Z 18010KT 25/02 A2985 RMK A01 T02480017  RH  022%=      5-min Rain = 0
KST2 081628Z 18007KT 25/02 A2985 RMK A01 T02500016  RH  022%=      5-min Rain = 0
KST2 081629Z 18007KT 25/02 A2985 RMK A01 T02500019  RH  022%=      5-min Rain = 0
KST2 081630Z 23005KT 25/02 A2985 RMK A01 T02490018  RH  022%=      5-min Rain = 0
KST2 081631Z 21006KT 25/02 A2985 RMK A01 T02490020  RH  023%=      5-min Rain = 0
KST2 081632Z 20012KT 25/02 A2985 RMK A01 T02510022  RH  023%=      5-min Rain = 0
KST2 081633Z 20011KT 25/02 A2985 RMK A01 T02520020  RH  022%=      5-min Rain = 0
KST2 081634Z 18009G15KT 25/02 A2985 RMK A01 T02530015  RH  021%=      5-min Rain = 0
KST2 081635Z 18008KT 25/02 A2985 RMK A01 T02520015  RH  021%=      5-min Rain = 0
KST2 081636Z 19008KT 25/02 A2985 RMK A01 T02500018  RH  022%=      5-min Rain = 0
KST2 081637Z 21011KT 25/02 A2985 RMK A01 T02530019  RH  022%=      5-min Rain = 0
KST2 081638Z 23010KT 25/01 A2985 RMK A01 T02530012  RH  021%=      5-min Rain = 0
KST2 081639Z 24011KT 25/02 A2985 RMK A01 T02500018  RH  022%=      5-min Rain = 0
KST2 081640Z 23010KT 25/02 A2985 RMK A01 T02530018  RH  022%=      5-min Rain = 0
KST2 081641Z 24008KT 26/02 A2985 RMK A01 T02550019  RH  022%=      5-min Rain = 0
KST2 081642Z 24008KT 25/02 A2985 RMK A01 T02530017  RH  022%=      5-min Rain = 0
KST2 081643Z 23010KT 25/02 A2985 RMK A01 T02490017  RH  022%=      5-min Rain = 0
KST2 081644Z 23009KT 25/02 A2985 RMK A01 T02470017  RH  022%=      5-min Rain = 0
KST2 081645Z 22008KT 25/02 A2985 RMK A01 T02490021  RH  023%=      5-min Rain = 0
KST2 081646Z 24009KT 25/02 A2985 RMK A01 T02520020  RH  022%=      5-min Rain = 0
KST2 081647Z 24011KT 26/02 A2985 RMK A01 T02550024  RH  022%=      5-min Rain = 0
KST2 081648Z 26010KT 26/02 A2985 RMK A01 T02560019  RH  021%=      5-min Rain = 0
KST2 081649Z 24008KT 25/02 A2985 RMK A01 T02520019  RH  022%=      5-min Rain = 0
KST2 081650Z 24007KT 25/02 A2985 RMK A01 T02520020  RH  022%=      5-min Rain = 0
KST2 081651Z 25008KT 26/02 A2985 RMK A01 T02550020  RH  022%=      5-min Rain = 0
KST2 081652Z 25008KT 26/02 A2984 RMK A01 T02550017  RH  021%=      5-min Rain = 0
KST2 081653Z 25010KT 25/02 A2984 RMK A01 T02540019  RH  022%=      5-min Rain = 0
KST2 081654Z 26008KT 26/02 A2984 RMK A01 T02550020  RH  022%=      5-min Rain = 0
KST2 081655Z 21006KT 25/02 A2984 RMK A01 T02540018  RH  021%=      5-min Rain = 0
KST2 081656Z 19008KT 25/02 A2984 RMK A01 T02540024  RH  022%=      5-min Rain = 0
KST2 081657Z 18009KT 26/02 A2984 RMK A01 T02580020  RH  021%=      5-min Rain = 0
KST2 081658Z 21010KT 26/02 A2984 RMK A01 T02560020  RH  021%=      5-min Rain = 0
KST2 081659Z 22012KT 26/02 A2984 RMK A01 T02550020  RH  022%=      5-min Rain = 0
KST2 081700Z 21009KT 26/02 A2984 RMK A01 T02550017  RH  021%=      5-min Rain = 0
KST2 081701Z 19009KT 25/02 A2984 RMK A01 T02530018  RH  022%=      5-min Rain = 0
KST2 081702Z 19007KT 25/02 A2984 RMK A01 T02520015  RH  021%=      5-min Rain = 0
KST2 081703Z 21004KT 25/02 A2984 RMK A01 T02510018  RH  022%=      5-min Rain = 0
KST2 081704Z 22004KT 25/01 A2984 RMK A01 T02500014  RH  021%=      5-min Rain = 0
KST2 081705Z 20006KT 25/02 A2984 RMK A01 T02480018  RH  022%=      5-min Rain = 0
KST2 081706Z 19005KT 25/02 A2984 RMK A01 T02500020  RH  022%=      5-min Rain = 0
KST2 081707Z 17007KT 25/02 A2984 RMK A01 T02510019  RH  022%=      5-min Rain = 0
KST2 081708Z 17008KT 25/02 A2984 RMK A01 T02530022  RH  022%=      5-min Rain = 0
KST2 081709Z 18007KT 25/02 A2984 RMK A01 T02540019  RH  022%=      5-min Rain = 0
KST2 081710Z 19007KT 25/02 A2984 RMK A01 T02530022  RH  022%=      5-min Rain = 0
KST2 081711Z 18006KT 26/03 A2984 RMK A01 T02570027  RH  023%=      5-min Rain = 0
KST2 081712Z 19007KT 26/02 A2984 RMK A01 T02600023  RH  021%=      5-min Rain = 0
KST2 081713Z 20007KT 26/02 A2984 RMK A01 T02590024  RH  022%=      5-min Rain = 0
KST2 081714Z 20010KT 26/03 A2983 RMK A01 T02580026  RH  022%=      5-min Rain = 0
KST2 081715Z 22012KT 26/02 A2983 RMK A01 T02600024  RH  021%=      5-min Rain = 0
KST2 081716Z 21009KT 26/02 A2984 RMK A01 T02610023  RH  021%=      5-min Rain = 0
KST2 081717Z 23006KT 26/02 A2984 RMK A01 T02610021  RH  021%=      5-min Rain = 0
KST2 081718Z 23006KT 26/02 A2984 RMK A01 T02570019  RH  021%=      5-min Rain = 0
KST2 081719Z 24006KT 26/02 A2983 RMK A01 T02550023  RH  022%=      5-min Rain = 0
KST2 081720Z 24005KT 26/02 A2983 RMK A01 T02560020  RH  022%=      5-min Rain = 0
KST2 081721Z 23006KT 25/02 A2983 RMK A01 T02540022  RH  022%=      5-min Rain = 0
KST2 081722Z 22008KT 25/03 A2983 RMK A01 T02530026  RH  023%=      5-min Rain = 0
KST2 081723Z 18009KT 26/03 A2983 RMK A01 T02560028  RH  023%=      5-min Rain = 0
KST2 081724Z 20011KT 26/03 A2983 RMK A01 T02620025  RH  022%=      5-min Rain = 0
KST2 081725Z 23009KT 26/03 A2983 RMK A01 T02620025  RH  021%=      5-min Rain = 0
KST2 081726Z 25011KT 26/02 A2983 RMK A01 T02610023  RH  021%=      5-min Rain = 0
KST2 081727Z 23010KT 26/02 A2983 RMK A01 T02590023  RH  022%=      5-min Rain = 0
KST2 081728Z 19008KT 26/02 A2983 RMK A01 T02590022  RH  021%=      5-min Rain = 0
KST2 081729Z 23010KT 26/02 A2983 RMK A01 T02590024  RH  022%=      5-min Rain = 0
KST2 081730Z 23009KT 26/02 A2983 RMK A01 T02590021  RH  021%=      5-min Rain = 0
KST2 081731Z 22011KT 26/02 A2983 RMK A01 T02570022  RH  022%=      5-min Rain = 0
KST2 081732Z 22008KT 26/02 A2983 RMK A01 T02560017  RH  021%=      5-min Rain = 0
KST2 081733Z 24006KT 25/02 A2983 RMK A01 T02540017  RH  021%=      5-min Rain = 0
KST2 081734Z 21007KT 25/02 A2983 RMK A01 T02530023  RH  022%=      5-min Rain = 0
KST2 081735Z 21006KT 26/02 A2983 RMK A01 T02550022  RH  022%=      5-min Rain = 0
KST2 081736Z 20005KT 26/02 A2983 RMK A01 T02550024  RH  022%=      5-min Rain = 0
KST2 081737Z 22004KT 26/02 A2983 RMK A01 T02550023  RH  022%=      5-min Rain = 0
KST2 081738Z 26002KT 25/02 A2983 RMK A01 T02530024  RH  023%=      5-min Rain = 0
KST2 081739Z 27002KT 25/03 A2983 RMK A01 T02520026  RH  023%=      5-min Rain = 0
KST2 081740Z 27003KT 25/02 A2983 RMK A01 T02520023  RH  023%=      5-min Rain = 0
KST2 081741Z 27001KT 25/03 A2983 RMK A01 T02530029  RH  023%=      5-min Rain = 0
KST2 081742Z 17008KT 26/03 A2982 RMK A01 T02560030  RH  023%=      5-min Rain = 0
KST2 081743Z 24008KT 26/03 A2982 RMK A01 T02590031  RH  023%=      5-min Rain = 0
KST2 081744Z 24007KT 26/03 A2982 RMK A01 T02590030  RH  023%=      5-min Rain = 0
KST2 081745Z 26005KT 26/03 A2982 RMK A01 T02570030  RH  023%=      5-min Rain = 0
KST2 081746Z 24003KT 26/03 A2982 RMK A01 T02560029  RH  023%=      5-min Rain = 0
KST2 081747Z 20009G19KT 26/03 A2982 RMK A01 T02550029  RH  023%=      5-min Rain = 0
KST2 081748Z 21012KT 26/03 A2982 RMK A01 T02590031  RH  023%=      5-min Rain = 0
KST2 081749Z 20012KT 26/03 A2982 RMK A01 T02630027  RH  022%=      5-min Rain = 0
KST2 081750Z 22011KT 26/03 A2982 RMK A01 T02630029  RH  022%=      5-min Rain = 0
KST2 081751Z 22012KT 27/02 A2982 RMK A01 T02650024  RH  021%=      5-min Rain = 0
KST2 081752Z 22010KT 27/02 A2982 RMK A01 T02650023  RH  021%=      5-min Rain = 0
KST2 081753Z 20007KT 26/02 A2982 RMK A01 T02630021  RH  021%=      5-min Rain = 0
KST2 081754Z 21008KT 26/02 A2982 RMK A01 T02610022  RH  021%=      5-min Rain = 0
KST2 081755Z 22010KT 26/02 A2982 RMK A01 T02600024  RH  022%=      5-min Rain = 0
KST2 081756Z 24008KT 26/02 A2982 RMK A01 T02590024  RH  022%=      5-min Rain = 0
KST2 081757Z 25007KT 26/03 A2982 RMK A01 T02610026  RH  022%=      5-min Rain = 0
KST2 081758Z 26007KT 26/03 A2982 RMK A01 T02610026  RH  022%=      5-min Rain = 0
KST2 081759Z 26003KT 26/03 A2982 RMK A01 T02620026  RH  022%=      5-min Rain = 0
KST2 081800Z 26005KT 26/03 A2981 RMK A01 T02610027  RH  022%=      5-min Rain = 0
KST2 081801Z 27006KT 26/03 A2981 RMK A01 T02610027  RH  022%=      5-min Rain = 0
KST2 081802Z 27004KT 26/03 A2981 RMK A01 T02600026  RH  022%=      5-min Rain = 0
KST2 081803Z 21006KT 26/03 A2981 RMK A01 T02620032  RH  023%=      5-min Rain = 0
KST2 081804Z 20010KT 27/04 A2981 RMK A01 T02670035  RH  022%=      5-min Rain = 0
KST2 081805Z 20007KT 27/03 A2981 RMK A01 T02660028  RH  022%=      5-min Rain = 0
KST2 081806Z 19005KT 26/03 A2981 RMK A01 T02610029  RH  022%=      5-min Rain = 0
KST2 081807Z 19007KT 26/03 A2981 RMK A01 T02600030  RH  023%=      5-min Rain = 0
KST2 081808Z 18005G10KT 26/03 A2981 RMK A01 T02610029  RH  022%=      5-min Rain = 0
KST2 081809Z 18002KT 26/03 A2981 RMK A01 T02600031  RH  023%=      5-min Rain = 0
KST2 081810Z 10001KT 26/03 A2981 RMK A01 T02620033  RH  023%=      5-min Rain = 0
KST2 081811Z 10000KT 26/03 A2981 RMK A01 T02630033  RH  023%=      5-min Rain = 0
KST2 081812Z 23004KT 26/04 A2981 RMK A01 T02640035  RH  023%=      5-min Rain = 0
KST2 081813Z 22007KT 27/04 A2981 RMK A01 T02660035  RH  022%=      5-min Rain = 0
KST2 081814Z 23006KT 27/03 A2981 RMK A01 T02670034  RH  022%=      5-min Rain = 0
KST2 081815Z 19005KT 27/03 A2981 RMK A01 T02660034  RH  022%=      5-min Rain = 0
KST2 081816Z 21006KT 27/03 A2981 RMK A01 T02670034  RH  022%=      5-min Rain = 0
KST2 081817Z 23005KT 27/04 A2981 RMK A01 T02660036  RH  023%=      5-min Rain = 0
KST2 081818Z 20006KT 27/03 A2981 RMK A01 T02670034  RH  022%=      5-min Rain = 0
KST2 081819Z 19006KT 27/03 A2981 RMK A01 T02670034  RH  022%=      5-min Rain = 0
KST2 081820Z 19007KT 27/03 A2981 RMK A01 T02670034  RH  022%=      5-min Rain = 0
KST2 081821Z 16004KT 27/03 A298 RMK A01 T02670032  RH  022%=      5-min Rain = 0
KST2 081822Z 18007KT 27/03 A298 RMK A01 T02660032  RH  022%=      5-min Rain = 0
KST2 081823Z 20007KT 27/03 A298 RMK A01 T02660034  RH  022%=      5-min Rain = 0
KST2 081824Z 18007KT 27/03 A298 RMK A01 T02670032  RH  022%=      5-min Rain = 0
KST2 081825Z 15005KT 27/03 A298 RMK A01 T02680027  RH  021%=      5-min Rain = 0
KST2 081826Z 23005KT 27/03 A298 RMK A01 T02670029  RH  021%=      5-min Rain = 0
KST2 081827Z 21005KT 27/04 A298 RMK A01 T02680035  RH  022%=      5-min Rain = 0
KST2 081828Z 23006KT 27/03 A298 RMK A01 T02720032  RH  021%=      5-min Rain = 0
KST2 081829Z 26008KT 27/03 A298 RMK A01 T02720032  RH  021%=      5-min Rain = 0
KST2 081830Z 26008KT 27/03 A298 RMK A01 T02710032  RH  021%=      5-min Rain = 0
KST2 081831Z 25008KT 27/03 A298 RMK A01 T02690030  RH  021%=      5-min Rain = 0
KST2 081832Z 24007KT 27/03 A298 RMK A01 T02680033  RH  022%=      5-min Rain = 0
KST2 081833Z 22006KT 27/03 A298 RMK A01 T02690031  RH  022%=      5-min Rain = 0
KST2 081834Z 15005KT 27/03 A298 RMK A01 T02690030  RH  021%=      5-min Rain = 0
KST2 081835Z 12006KT 27/03 A2979 RMK A01 T02680026  RH  021%=      5-min Rain = 0
KST2 081836Z 16004KT 27/03 A298 RMK A01 T02670028  RH  021%=      5-min Rain = 0
KST2 081837Z 17003KT 27/03 A2979 RMK A01 T02690029  RH  021%=      5-min Rain = 0
KST2 081838Z 18008KT 27/03 A2979 RMK A01 T02690031  RH  022%=      5-min Rain = 0
KST2 081839Z 18008KT 27/03 A2979 RMK A01 T02710031  RH  021%=      5-min Rain = 0
KST2 081840Z 16008KT 27/03 A2979 RMK A01 T02700029  RH  021%=      5-min Rain = 0
KST2 081841Z 15006KT 27/03 A2979 RMK A01 T02690027  RH  021%=      5-min Rain = 0
KST2 081842Z 13002KT 27/03 A2979 RMK A01 T02680028  RH  021%=      5-min Rain = 0
KST2 081843Z 15003KT 27/03 A2979 RMK A01 T02680028  RH  021%=      5-min Rain = 0
KST2 081844Z 10003KT 27/03 A2979 RMK A01 T02700028  RH  021%=      5-min Rain = 0
KST2 081845Z 09002KT 27/03 A2979 RMK A01 T02690030  RH  021%=      5-min Rain = 0
KST2 081846Z 17001KT 27/04 A2979 RMK A01 T02680039  RH  023%=      5-min Rain = 0
KST2 081847Z 21002KT 27/04 A2979 RMK A01 T02720035  RH  022%=      5-min Rain = 0
KST2 081848Z 22002KT 27/03 A2979 RMK A01 T02730033  RH  021%=      5-min Rain = 0
KST2 081849Z 20005KT 27/03 A2979 RMK A01 T02740031  RH  021%=      5-min Rain = 0
KST2 081850Z 21003KT 27/03 A2979 RMK A01 T02730034  RH  022%=      5-min Rain = 0
KST2 081851Z 18004KT 27/04 A2979 RMK A01 T02740036  RH  022%=      5-min Rain = 0
KST2 081852Z 17006KT 28/03 A2979 RMK A01 T02760031  RH  021%=      5-min Rain = 0
KST2 081853Z 17006KT 28/03 A2979 RMK A01 T02770026  RH  020%=      5-min Rain = 0
KST2 081854Z 19005KT 28/03 A2979 RMK A01 T02760028  RH  020%=      5-min Rain = 0
KST2 081855Z 20003KT 28/03 A2978 RMK A01 T02770031  RH  021%=      5-min Rain = 0
KST2 081856Z 25007KT 28/03 A2978 RMK A01 T02780031  RH  020%=      5-min Rain = 0
KST2 081857Z 24008G14KT 28/03 A2978 RMK A01 T02760026  RH  020%=      5-min Rain = 0
KST2 081858Z 24010KT 28/02 A2978 RMK A01 T02750024  RH  020%=      5-min Rain = 0
KST2 081859Z 24009KT 28/02 A2978 RMK A01 T02790021  RH  019%=      5-min Rain = 0
KST2 081900Z 23010KT 28/02 A2978 RMK A01 T02790020  RH  019%=      5-min Rain = 0
KST2 081901Z 27010KT 28/02 A2978 RMK A01 T02760017  RH  019%=      5-min Rain = 0
KST2 081902Z 29008KT 27/02 A2978 RMK A01 T02740018  RH  019%=      5-min Rain = 0
KST2 081903Z 25005KT 27/02 A2978 RMK A01 T02740017  RH  019%=      5-min Rain = 0
KST2 081904Z 22011KT 28/02 A2978 RMK A01 T02770020  RH  019%=      5-min Rain = 0
KST2 081905Z 21010KT 28/02 A2978 RMK A01 T02800017  RH  018%=      5-min Rain = 0
KST2 081906Z 21008KT 28/02 A2978 RMK A01 T02790016  RH  018%=      5-min Rain = 0
KST2 081907Z 21006KT 28/01 A2978 RMK A01 T02770014  RH  018%=      5-min Rain = 0
KST2 081908Z 20007KT 28/01 A2978 RMK A01 T02760014  RH  018%=      5-min Rain = 0
KST2 081909Z 19005KT 28/01 A2978 RMK A01 T02750014  RH  018%=      5-min Rain = 0
KST2 081910Z 20006KT 28/01 A2978 RMK A01 T02750013  RH  018%=      5-min Rain = 0
KST2 081911Z 21011KT 28/01 A2978 RMK A01 T02760013  RH  018%=      5-min Rain = 0
KST2 081912Z 22007KT 28/01 A2978 RMK A01 T02790011  RH  018%=      5-min Rain = 0
KST2 081913Z 22010KT 28/01 A2978 RMK A01 T02790012  RH  018%=      5-min Rain = 0
KST2 081914Z 20010KT 28/01 A2978 RMK A01 T02780010  RH  018%=      5-min Rain = 0
KST2 081915Z 19006KT 28/01 A2978 RMK A01 T02750008  RH  018%=      5-min Rain = 0
KST2 081916Z 20006KT 27/01 A2978 RMK A01 T02740010  RH  018%=      5-min Rain = 0
KST2 081917Z 20006G12KT 27/01 A2978 RMK A01 T02730011  RH  018%=      5-min Rain = 0
KST2 081918Z 25008KT 28/02 A2977 RMK A01 T02750015  RH  018%=      5-min Rain = 0
KST2 081919Z 23007KT 28/02 A2978 RMK A01 T02790018  RH  018%=      5-min Rain = 0
KST2 081920Z 25007KT 28/02 A2977 RMK A01 T02820018  RH  018%=      5-min Rain = 0
KST2 081921Z 21007KT 28/01 A2977 RMK A01 T02830014  RH  018%=      5-min Rain = 0
KST2 081922Z 19002KT 28/01 A2977 RMK A01 T02800014  RH  018%=      5-min Rain = 0
KST2 081923Z 23004KT 28/02 A2977 RMK A01 T02800016  RH  018%=      5-min Rain = 0
KST2 081924Z 23007KT 28/02 A2977 RMK A01 T02800015  RH  018%=      5-min Rain = 0
KST2 081925Z 22008KT 28/01 A2977 RMK A01 T02790010  RH  018%=      5-min Rain = 0
KST2 081926Z 22008KT 28/01 A2977 RMK A01 T02780010  RH  018%=      5-min Rain = 0
KST2 081927Z 21005KT 28/01 A2977 RMK A01 T02770008  RH  017%=      5-min Rain = 0
KST2 081928Z 21008KT 28/01 A2977 RMK A01 T02760010  RH  018%=      5-min Rain = 0
KST2 081929Z 22005KT 28/01 A2977 RMK A01 T02760013  RH  018%=      5-min Rain = 0
KST2 081930Z 21003KT 28/01 A2977 RMK A01 T02780010  RH  018%=      5-min Rain = 0
KST2 081931Z 20007KT 28/01 A2977 RMK A01 T02790013  RH  018%=      5-min Rain = 0
KST2 081932Z 19007KT 28/01 A2977 RMK A01 T02790012  RH  018%=      5-min Rain = 0
KST2 081933Z 21005KT 28/01 A2977 RMK A01 T02760011  RH  018%=      5-min Rain = 0
KST2 081934Z 20003KT 28/01 A2977 RMK A01 T02750011  RH  018%=      5-min Rain = 0
KST2 081935Z 20000KT 28/01 A2976 RMK A01 T02750013  RH  018%=      5-min Rain = 0
KST2 081936Z 34001KT 28/02 A2976 RMK A01 T02760019  RH  019%=      5-min Rain = 0
KST2 081937Z 25002KT 28/01 A2976 RMK A01 T02770011  RH  018%=      5-min Rain = 0
KST2 081938Z 14006KT 28/01 A2976 RMK A01 T02770014  RH  018%=      5-min Rain = 0
KST2 081939Z 13005KT 28/01 A2976 RMK A01 T02790011  RH  018%=      5-min Rain = 0
KST2 081940Z 15004KT 28/01 A2976 RMK A01 T02800012  RH  018%=      5-min Rain = 0
KST2 081941Z 21002KT 28/01 A2976 RMK A01 T02810013  RH  018%=      5-min Rain = 0
KST2 081942Z 18001KT 28/02 A2976 RMK A01 T02830019  RH  018%=      5-min Rain = 0
KST2 081943Z 24003KT 29/02 A2976 RMK A01 T02860020  RH  018%=      5-min Rain = 0
KST2 081944Z 20005KT 29/02 A2976 RMK A01 T02880018  RH  017%=      5-min Rain = 0
KST2 081945Z 18008KT 29/02 A2975 RMK A01 T02900020  RH  018%=      5-min Rain = 0
KST2 081946Z 18008G13KT 30/02 A2975 RMK A01 T02960020  RH  017%=      5-min Rain = 0
KST2 081947Z 17005KT 30/02 A2976 RMK A01 T02950015  RH  017%=      5-min Rain = 0
KST2 081948Z 16006KT 29/02 A2976 RMK A01 T02930015  RH  017%=      5-min Rain = 0
KST2 081949Z 18005KT 29/01 A2975 RMK A01 T02920014  RH  017%=      5-min Rain = 0
KST2 081950Z 19004KT 29/01 A2975 RMK A01 T02900014  RH  017%=      5-min Rain = 0
KST2 081951Z 24003KT 29/01 A2975 RMK A01 T02870014  RH  017%=      5-min Rain = 0
KST2 081952Z 23002KT 29/01 A2975 RMK A01 T02850012  RH  017%=      5-min Rain = 0
KST2 081953Z 28001KT 28/02 A2975 RMK A01 T02840016  RH  018%=      5-min Rain = 0
KST2 081954Z 28002KT 29/02 A2975 RMK A01 T02850020  RH  018%=      5-min Rain = 0
KST2 081955Z 26004KT 29/02 A2975 RMK A01 T02870015  RH  017%=      5-min Rain = 0
KST2 081956Z 28001KT 29/01 A2975 RMK A01 T02860014  RH  017%=      5-min Rain = 0
KST2 081957Z 30000KT 28/02 A2975 RMK A01 T02840016  RH  018%=      5-min Rain = 0
KST2 081958Z 27001KT 28/02 A2975 RMK A01 T02840019  RH  018%=      5-min Rain = 0
KST2 081959Z 29005KT 29/02 A2975 RMK A01 T02850017  RH  018%=      5-min Rain = 0
KST2 082000Z 26007KT 29/02 A2975 RMK A01 T02870015  RH  017%=      5-min Rain = 0
KST2 082001Z 24008KT 29/01 A2975 RMK A01 T02870010  RH  017%=      5-min Rain = 0
KST2 082002Z 18002KT 29/01 A2975 RMK A01 T02860008  RH  017%=      5-min Rain = 0
KST2 082003Z 09001KT 28/01 A2975 RMK A01 T02840007  RH  017%=      5-min Rain = 0
KST2 082004Z 07004KT 28/01 A2974 RMK A01 T02820010  RH  017%=      5-min Rain = 0
KST2 082005Z 12006KT 28/01 A2974 RMK A01 T02830010  RH  017%=      5-min Rain = 0
KST2 082006Z 17004KT 29/01 A2974 RMK A01 T02860010  RH  017%=      5-min Rain = 0
KST2 082007Z 17001KT 29/01 A2974 RMK A01 T02870010  RH  017%=      5-min Rain = 0
KST2 082008Z 20005KT 29/01 A2974 RMK A01 T02880012  RH  017%=      5-min Rain = 0
KST2 082009Z 21009KT 29/01 A2974 RMK A01 T02920011  RH  016%=      5-min Rain = 0
KST2 082010Z 21006KT 30/00 A2974 RMK A01 T02950003  RH  015%=      5-min Rain = 0
KST2 082011Z 21004KT 29/00 A2974 RMK A01 T02930002  RH  015%=      5-min Rain = 0
KST2 082012Z 26006G11KT 29/01 A2974 RMK A01 T02920006  RH  016%=      5-min Rain = 0
KST2 082013Z 27004KT 29/01 A2974 RMK A01 T02910011  RH  016%=      5-min Rain = 0
KST2 082014Z 26006KT 29/01 A2974 RMK A01 T02920010  RH  016%=      5-min Rain = 0
KST2 082015Z 24004KT 29/01 A2974 RMK A01 T02900006  RH  016%=      5-min Rain = 0
KST2 082016Z 29011G18KT 29/01 A2974 RMK A01 T02890012  RH  017%=      5-min Rain = 0
KST2 082017Z 29009KT 29/01 A2974 RMK A01 T02910009  RH  016%=      5-min Rain = 0
KST2 082018Z 28007KT 29/01 A2974 RMK A01 T02920011  RH  016%=      5-min Rain = 0
KST2 082019Z 29008KT 29/01 A2974 RMK A01 T02930011  RH  016%=      5-min Rain = 0
KST2 082020Z 27007KT 30/01 A2974 RMK A01 T02950009  RH  016%=      5-min Rain = 0
KST2 082021Z 28008KT 30/00 A2974 RMK A01 T02970003  RH  015%=      5-min Rain = 0
KST2 082022Z 29005KT 30/M00 A2974 RMK A01 T02961002  RH  015%=      5-min Rain = 0
KST2 082023Z 32005KT 30/M00 A2974 RMK A01 T02951002  RH  015%=      5-min Rain = 0
KST2 082024Z 31005KT 29/M01 A2973 RMK A01 T02941008  RH  014%=      5-min Rain = 0
KST2 082025Z 31006KT 29/M01 A2973 RMK A01 T02921009  RH  014%=      5-min Rain = 0
KST2 082026Z 28004KT 29/M01 A2973 RMK A01 T02921010  RH  014%=      5-min Rain = 0
KST2 082027Z 28005KT 29/M01 A2973 RMK A01 T02931010  RH  014%=      5-min Rain = 0
KST2 082028Z 26005KT 29/M01 A2973 RMK A01 T02941008  RH  014%=      5-min Rain = 0
KST2 082029Z 26003KT 30/M01 A2973 RMK A01 T02961007  RH  014%=      5-min Rain = 0
KST2 082030Z 27009KT 30/M01 A2973 RMK A01 T02991012  RH  013%=      5-min Rain = 0
KST2 082031Z 26009KT 30/M02 A2973 RMK A01 T03011024  RH  012%=      5-min Rain = 0
KST2 082032Z 27008KT 30/M02 A2973 RMK A01 T03041020  RH  012%=      5-min Rain = 0
KST2 082033Z 26005KT 31/M03 A2973 RMK A01 T03051031  RH  011%=      5-min Rain = 0
KST2 082034Z 23007KT 30/M03 A2973 RMK A01 T03011027  RH  012%=      5-min Rain = 0
KST2 082035Z 25007KT 30/M02 A2973 RMK A01 T02991024  RH  012%=      5-min Rain = 0
KST2 082036Z 24009KT 30/M03 A2973 RMK A01 T03001025  RH  012%=      5-min Rain = 0
KST2 082037Z 27008KT 30/M03 A2973 RMK A01 T02991028  RH  012%=      5-min Rain = 0
KST2 082038Z 29007KT 30/M03 A2973 RMK A01 T02971028  RH  012%=      5-min Rain = 0
KST2 082039Z 28005KT 30/M03 A2973 RMK A01 T02961028  RH  012%=      5-min Rain = 0
KST2 082040Z 27009KT 30/M03 A2972 RMK A01 T02971030  RH  012%=      5-min Rain = 0
KST2 082041Z 25009KT 30/M04 A2972 RMK A01 T02991038  RH  011%=      5-min Rain = 0
KST2 082042Z 25011KT 30/M04 A2972 RMK A01 T02991036  RH  011%=      5-min Rain = 0
KST2 082043Z 25011KT 30/M04 A2972 RMK A01 T03011035  RH  011%=      5-min Rain = 0
KST2 082044Z 25010KT 30/M04 A2972 RMK A01 T03011038  RH  011%=      5-min Rain = 0
KST2 082045Z 24009KT 30/M04 A2972 RMK A01 T02991035  RH  011%=      5-min Rain = 0
KST2 082046Z 24011G16KT 30/M04 A2972 RMK A01 T03011036  RH  011%=      5-min Rain = 0
KST2 082047Z 26011KT 30/M04 A2972 RMK A01 T03011036  RH  011%=      5-min Rain = 0
KST2 082048Z 26008KT 30/M04 A2972 RMK A01 T03011039  RH  011%=      5-min Rain = 0
KST2 082049Z 26009KT 30/M04 A2972 RMK A01 T03001040  RH  011%=      5-min Rain = 0
KST2 082050Z 27009KT 30/M04 A2972 RMK A01 T02991043  RH  011%=      5-min Rain = 0
KST2 082051Z 28006KT 30/M05 A2972 RMK A01 T02981048  RH  010%=      5-min Rain = 0
KST2 082052Z 27008KT 30/M04 A2972 RMK A01 T02981043  RH  011%=      5-min Rain = 0
KST2 082053Z 27010KT 30/M04 A2972 RMK A01 T03001038  RH  011%=      5-min Rain = 0
KST2 082054Z 27011KT 30/M04 A2972 RMK A01 T03021035  RH  011%=      5-min Rain = 0
KST2 082055Z 27011KT 30/M03 A2972 RMK A01 T03041034  RH  011%=      5-min Rain = 0
KST2 082056Z 28008KT 30/M04 A2972 RMK A01 T03031036  RH  011%=      5-min Rain = 0
KST2 082057Z 29008KT 30/M04 A2972 RMK A01 T03011038  RH  011%=      5-min Rain = 0
KST2 082058Z 28009KT 30/M04 A2972 RMK A01 T02991037  RH  011%=      5-min Rain = 0
KST2 082059Z 28006KT 30/M04 A2972 RMK A01 T02981036  RH  011%=      5-min Rain = 0
KST2 082100Z 26004KT 30/M04 A2971 RMK A01 T02981036  RH  011%=      5-min Rain = 0
KST2 082101Z 25004KT 30/M04 A2971 RMK A01 T02991036  RH  011%=      5-min Rain = 0
KST2 082102Z 26007KT 30/M03 A2971 RMK A01 T02991031  RH  012%=      5-min Rain = 0
KST2 082103Z 27007KT 30/M03 A2971 RMK A01 T03011028  RH  012%=      5-min Rain = 0
KST2 082104Z 25012KT 30/M03 A2971 RMK A01 T03021031  RH  011%=      5-min Rain = 0
KST2 082105Z 25011G17KT 30/M03 A2971 RMK A01 T03031033  RH  011%=      5-min Rain = 0
KST2 082106Z 25011KT 30/M03 A2971 RMK A01 T03031031  RH  011%=      5-min Rain = 0
KST2 082107Z 25009KT 30/M03 A2971 RMK A01 T03041034  RH  011%=      5-min Rain = 0
KST2 082108Z 25011KT 30/M03 A2971 RMK A01 T03041027  RH  011%=      5-min Rain = 0
KST2 082109Z 24009KT 30/M03 A2971 RMK A01 T03041029  RH  011%=      5-min Rain = 0
KST2 082110Z 25009KT 30/M03 A2971 RMK A01 T03011029  RH  012%=      5-min Rain = 0
KST2 082111Z 25010KT 30/M03 A2971 RMK A01 T03001028  RH  012%=      5-min Rain = 0
KST2 082112Z 25007KT 30/M03 A2971 RMK A01 T02991027  RH  012%=      5-min Rain = 0
KST2 082113Z 27008KT 30/M02 A2971 RMK A01 T03001023  RH  012%=      5-min Rain = 0
KST2 082114Z 25008KT 30/M03 A2971 RMK A01 T03011026  RH  012%=      5-min Rain = 0
KST2 082115Z 24006KT 30/M03 A2971 RMK A01 T03001027  RH  012%=      5-min Rain = 0
KST2 082116Z 25007KT 30/M02 A2971 RMK A01 T02991022  RH  012%=      5-min Rain = 0
KST2 082117Z 26005KT 30/M02 A2971 RMK A01 T02991024  RH  012%=      5-min Rain = 0
KST2 082118Z 26011KT 30/M02 A2971 RMK A01 T02991024  RH  012%=      5-min Rain = 0
KST2 082119Z 25012KT 30/M03 A2971 RMK A01 T03001025  RH  012%=      5-min Rain = 0
KST2 082120Z 25011KT 30/M02 A297 RMK A01 T03011024  RH  012%=      5-min Rain = 0
KST2 082121Z 26009KT 30/M03 A297 RMK A01 T03001025  RH  012%=      5-min Rain = 0
KST2 082122Z 26007KT 30/M02 A297 RMK A01 T03001022  RH  012%=      5-min Rain = 0
KST2 082123Z 27009KT 30/M02 A297 RMK A01 T03021019  RH  012%=      5-min Rain = 0
KST2 082124Z 28008KT 30/M02 A297 RMK A01 T03041023  RH  012%=      5-min Rain = 0
KST2 082125Z 26007KT 30/M02 A297 RMK A01 T03031019  RH  012%=      5-min Rain = 0
KST2 082126Z 27005KT 30/M02 A297 RMK A01 T03021022  RH  012%=      5-min Rain = 0
KST2 082127Z 26009KT 30/M02 A297 RMK A01 T03001020  RH  012%=      5-min Rain = 0
KST2 082128Z 23006KT 30/M02 A297 RMK A01 T02991017  RH  013%=      5-min Rain = 0
KST2 082129Z 25008KT 30/M02 A297 RMK A01 T02981016  RH  013%=      5-min Rain = 0
KST2 082130Z 28006KT 30/M01 A297 RMK A01 T03001014  RH  013%=      5-min Rain = 0
KST2 082131Z 29004KT 30/M02 A297 RMK A01 T03001019  RH  013%=      5-min Rain = 0
KST2 082132Z 27003KT 30/M02 A297 RMK A01 T02991019  RH  013%=      5-min Rain = 0
KST2 082133Z 23006KT 30/M01 A297 RMK A01 T02981014  RH  013%=      5-min Rain = 0
KST2 082134Z 27011KT 30/M01 A297 RMK A01 T03001012  RH  013%=      5-min Rain = 0
KST2 082135Z 26011KT 31/M01 A297 RMK A01 T03051011  RH  013%=      5-min Rain = 0
KST2 082136Z 26011KT 31/M01 A297 RMK A01 T03081013  RH  012%=      5-min Rain = 0
KST2 082137Z 26012KT 31/M01 A297 RMK A01 T03061014  RH  013%=      5-min Rain = 0
KST2 082138Z 25010KT 30/M02 A297 RMK A01 T03031018  RH  012%=      5-min Rain = 0
KST2 082139Z 26009KT 30/M02 A297 RMK A01 T03001019  RH  013%=      5-min Rain = 0
KST2 082140Z 27009KT 30/M02 A297 RMK A01 T02981017  RH  013%=      5-min Rain = 0
KST2 082141Z 26009KT 30/M02 A297 RMK A01 T02991016  RH  013%=      5-min Rain = 0
KST2 082142Z 26006KT 30/M02 A297 RMK A01 T03001017  RH  013%=      5-min Rain = 0
KST2 082143Z 27006KT 30/M02 A297 RMK A01 T03011017  RH  013%=      5-min Rain = 0
KST2 082144Z 26008KT 30/M01 A297 RMK A01 T03011013  RH  013%=      5-min Rain = 0
KST2 082145Z 26012KT 30/M02 A297 RMK A01 T03011017  RH  013%=      5-min Rain = 0
KST2 082146Z 25010KT 30/M02 A297 RMK A01 T03011019  RH  012%=      5-min Rain = 0
KST2 082147Z 25007KT 30/M02 A297 RMK A01 T03001020  RH  012%=      5-min Rain = 0
KST2 082148Z 29008KT 30/M02 A297 RMK A01 T02981020  RH  013%=      5-min Rain = 0
KST2 082149Z 29009KT 30/M02 A297 RMK A01 T02971020  RH  013%=      5-min Rain = 0
KST2 082150Z 26008KT 30/M02 A297 RMK A01 T02971018  RH  013%=      5-min Rain = 0
KST2 082151Z 25008KT 30/M02 A297 RMK A01 T02991021  RH  012%=      5-min Rain = 0
KST2 082152Z 26010KT 30/M02 A297 RMK A01 T03011022  RH  012%=      5-min Rain = 0
KST2 082153Z 25008KT 30/M03 A297 RMK A01 T03001028  RH  012%=      5-min Rain = 0
KST2 082154Z 25006KT 30/M03 A297 RMK A01 T02981028  RH  012%=      5-min Rain = 0
KST2 082155Z 27006KT 30/M02 A297 RMK A01 T02961024  RH  012%=      5-min Rain = 0
KST2 082156Z 28008KT 30/M02 A297 RMK A01 T02971018  RH  013%=      5-min Rain = 0
KST2 082157Z 25011KT 30/M02 A297 RMK A01 T03001016  RH  013%=      5-min Rain = 0
KST2 082158Z 26010KT 30/M02 A297 RMK A01 T03011021  RH  012%=      5-min Rain = 0
KST2 082159Z 25007KT 30/M02 A297 RMK A01 T03001019  RH  013%=      5-min Rain = 0
KST2 082200Z 24008KT 30/M02 A297 RMK A01 T03001017  RH  013%=      5-min Rain = 0
KST2 082201Z 25008KT 30/M02 A297 RMK A01 T02991017  RH  013%=      5-min Rain = 0
KST2 082202Z 26008KT 30/M02 A297 RMK A01 T02991022  RH  012%=      5-min Rain = 0
KST2 082203Z 24007KT 30/M02 A297 RMK A01 T02971022  RH  012%=      5-min Rain = 0
KST2 082204Z 26007KT 30/M02 A297 RMK A01 T02961020  RH  013%=      5-min Rain = 0
KST2 082205Z 28007KT 30/M02 A297 RMK A01 T02971020  RH  013%=      5-min Rain = 0
KST2 082206Z 28008KT 30/M02 A2969 RMK A01 T02981023  RH  012%=      5-min Rain = 0
KST2 082207Z 28009KT 30/M02 A2969 RMK A01 T03011022  RH  012%=      5-min Rain = 0
KST2 082208Z 28011KT 30/M03 A2969 RMK A01 T03021025  RH  012%=      5-min Rain = 0
KST2 082209Z 28009KT 30/M02 A2969 RMK A01 T03021022  RH  012%=      5-min Rain = 0
KST2 082210Z 28009KT 30/M03 A2969 RMK A01 T03031025  RH  012%=      5-min Rain = 0
KST2 082211Z 29009KT 30/M03 A2969 RMK A01 T03011026  RH  012%=      5-min Rain = 0
KST2 082212Z 29009KT 30/M03 A2969 RMK A01 T03001029  RH  012%=      5-min Rain = 0
KST2 082213Z 30007KT 30/M03 A2969 RMK A01 T02991030  RH  012%=      5-min Rain = 0
KST2 082214Z 29007KT 30/M03 A2969 RMK A01 T02971030  RH  012%=      5-min Rain = 0
KST2 082215Z 28006KT 30/M03 A2969 RMK A01 T02981030  RH  012%=      5-min Rain = 0
KST2 082216Z 26008KT 30/M02 A2969 RMK A01 T03001022  RH  012%=      5-min Rain = 0
KST2 082217Z 25008KT 30/M02 A2969 RMK A01 T03021022  RH  012%=      5-min Rain = 0
KST2 082218Z 25010KT 30/M03 A2969 RMK A01 T03031025  RH  012%=      5-min Rain = 0
KST2 082219Z 25011KT 30/M03 A2969 RMK A01 T03021027  RH  012%=      5-min Rain = 0
KST2 082220Z 25010KT 30/M03 A2969 RMK A01 T03001031  RH  011%=      5-min Rain = 0
KST2 082221Z 25011KT 30/M03 A2969 RMK A01 T03001031  RH  011%=      5-min Rain = 0
KST2 082222Z 24009KT 30/M03 A2969 RMK A01 T02991033  RH  011%=      5-min Rain = 0
KST2 082223Z 25008KT 30/M03 A2969 RMK A01 T02991033  RH  011%=      5-min Rain = 0
KST2 082224Z 26006KT 30/M03 A2969 RMK A01 T03001030  RH  012%=      5-min Rain = 0
KST2 082225Z 25007KT 30/M03 A2969 RMK A01 T03001029  RH  012%=      5-min Rain = 0
KST2 082226Z 25007KT 30/M03 A2969 RMK A01 T03011027  RH  012%=      5-min Rain = 0
KST2 082227Z 28007KT 30/M03 A2969 RMK A01 T03011028  RH  012%=      5-min Rain = 0
KST2 082228Z 27008KT 30/M03 A2969 RMK A01 T03011033  RH  011%=      5-min Rain = 0
KST2 082229Z 28007KT 30/M03 A2969 RMK A01 T03001034  RH  011%=      5-min Rain = 0
KST2 082230Z 26008KT 30/M03 A2969 RMK A01 T02991034  RH  011%=      5-min Rain = 0
KST2 082231Z 25008KT 30/M03 A2969 RMK A01 T02981028  RH  012%=      5-min Rain = 0
KST2 082232Z 26007KT 30/M03 A2969 RMK A01 T02981026  RH  012%=      5-min Rain = 0
KST2 082233Z 27004KT 30/M03 A2969 RMK A01 T02981026  RH  012%=      5-min Rain = 0
KST2 082234Z 24007KT 30/M02 A2969 RMK A01 T02991024  RH  012%=      5-min Rain = 0
KST2 082235Z 24009KT 30/M03 A2968 RMK A01 T02991026  RH  012%=      5-min Rain = 0
KST2 082236Z 23009KT 30/M03 A2968 RMK A01 T02981026  RH  012%=      5-min Rain = 0
KST2 082237Z 23009KT 30/M03 A2968 RMK A01 T02971025  RH  012%=      5-min Rain = 0
KST2 082238Z 26008KT 30/M02 A2968 RMK A01 T02971023  RH  012%=      5-min Rain = 0
KST2 082239Z 27007KT 30/M02 A2968 RMK A01 T03001021  RH  012%=      5-min Rain = 0
KST2 082240Z 26009KT 30/M03 A2968 RMK A01 T03031027  RH  012%=      5-min Rain = 0
KST2 082241Z 26010KT 30/M02 A2968 RMK A01 T03031023  RH  012%=      5-min Rain = 0
KST2 082242Z 26009KT 30/M03 A2968 RMK A01 T03031030  RH  011%=      5-min Rain = 0
KST2 082243Z 26009KT 30/M03 A2969 RMK A01 T03011033  RH  011%=      5-min Rain = 0
KST2 082244Z 26010KT 30/M03 A2968 RMK A01 T02991030  RH  012%=      5-min Rain = 0
KST2 082245Z 27010KT 30/M03 A2968 RMK A01 T02991032  RH  011%=      5-min Rain = 0
KST2 082246Z 28009KT 30/M03 A2968 RMK A01 T02991032  RH  011%=      5-min Rain = 0
KST2 082247Z 27009KT 30/M03 A2968 RMK A01 T02991031  RH  012%=      5-min Rain = 0
KST2 082248Z 27009KT 30/M02 A2968 RMK A01 T02991023  RH  012%=      5-min Rain = 0
KST2 082249Z 26009KT 30/M02 A2968 RMK A01 T03011021  RH  012%=      5-min Rain = 0
KST2 082250Z 26008KT 30/M03 A2968 RMK A01 T03011026  RH  012%=      5-min Rain = 0
KST2 082251Z 27009KT 30/M02 A2968 RMK A01 T03011020  RH  012%=      5-min Rain = 0
KST2 082252Z 28009KT 30/M03 A2968 RMK A01 T03021027  RH  012%=      5-min Rain = 0
KST2 082253Z 28007KT 30/M03 A2968 RMK A01 T03011027  RH  012%=      5-min Rain = 0
KST2 082254Z 28009KT 30/M03 A2968 RMK A01 T03011026  RH  012%=      5-min Rain = 0
KST2 082255Z 28008KT 30/M03 A2968 RMK A01 T03011028  RH  012%=      5-min Rain = 0
KST2 082256Z 27007KT 30/M02 A2968 RMK A01 T02991023  RH  012%=      5-min Rain = 0
KST2 082257Z 26007KT 30/M02 A2968 RMK A01 T02991018  RH  013%=      5-min Rain = 0
KST2 082258Z 27007KT 30/M02 A2968 RMK A01 T02991020  RH  012%=      5-min Rain = 0
KST2 082259Z 28008KT 30/M02 A2968 RMK A01 T03001020  RH  012%=      5-min Rain = 0
KST2 082300Z 29006KT 30/M02 A2968 RMK A01 T02991024  RH  012%=      5-min Rain = 0
KST2 082301Z 29004KT 30/M03 A2968 RMK A01 T02981027  RH  012%=      5-min Rain = 0
KST2 082302Z 31003KT 30/M02 A2968 RMK A01 T02971024  RH  012%=      5-min Rain = 0
KST2 082303Z 30003KT 30/M02 A2968 RMK A01 T02971021  RH  013%=      5-min Rain = 0
KST2 082304Z 27006KT 30/M02 A2968 RMK A01 T02971022  RH  013%=      5-min Rain = 0
KST2 082305Z 26007KT 30/M03 A2968 RMK A01 T02981027  RH  012%=      5-min Rain = 0
KST2 082306Z 27009KT 30/M02 A2968 RMK A01 T02981020  RH  013%=      5-min Rain = 0
KST2 082307Z 27009KT 30/M02 A2968 RMK A01 T02991019  RH  013%=      5-min Rain = 0
KST2 082308Z 27007KT 30/M02 A2968 RMK A01 T02981021  RH  012%=      5-min Rain = 0
KST2 082309Z 26007KT 30/M02 A2968 RMK A01 T02981017  RH  013%=      5-min Rain = 0
KST2 082310Z 26008KT 30/M02 A2968 RMK A01 T02981015  RH  013%=      5-min Rain = 0
KST2 082311Z 26008KT 30/M02 A2968 RMK A01 T03001019  RH  013%=      5-min Rain = 0
KST2 082312Z 26008KT 30/M02 A2968 RMK A01 T02991021  RH  012%=      5-min Rain = 0
KST2 082313Z 25009KT 30/M02 A2968 RMK A01 T02981017  RH  013%=      5-min Rain = 0
KST2 082314Z 25009KT 30/M02 A2968 RMK A01 T02991018  RH  013%=      5-min Rain = 0
KST2 082315Z 25008KT 30/M02 A2968 RMK A01 T02981017  RH  013%=      5-min Rain = 0
KST2 082316Z 25007KT 30/M02 A2968 RMK A01 T02981017  RH  013%=      5-min Rain = 0
KST2 082317Z 25008KT 30/M02 A2968 RMK A01 T02981017  RH  013%=      5-min Rain = 0
KST2 082318Z 24007KT 30/M02 A2968 RMK A01 T02981017  RH  013%=      5-min Rain = 0
KST2 082319Z 24006KT 30/M02 A2968 RMK A01 T02981017  RH  013%=      5-min Rain = 0
KST2 082320Z 23007KT 30/M02 A2968 RMK A01 T02971018  RH  013%=      5-min Rain = 0
KST2 082321Z 24008KT 30/M02 A2968 RMK A01 T02971018  RH  013%=      5-min Rain = 0
KST2 082322Z 25010KT 30/M02 A2968 RMK A01 T02961019  RH  013%=      5-min Rain = 0
KST2 082323Z 25009KT 30/M02 A2968 RMK A01 T02961022  RH  013%=      5-min Rain = 0
KST2 082324Z 26009KT 30/M02 A2968 RMK A01 T02971018  RH  013%=      5-min Rain = 0
KST2 082325Z 26010KT 30/M02 A2968 RMK A01 T02991023  RH  012%=      5-min Rain = 0
KST2 082326Z 27009KT 30/M02 A2968 RMK A01 T02991021  RH  012%=      5-min Rain = 0
KST2 082327Z 27009KT 30/M03 A2968 RMK A01 T02991025  RH  012%=      5-min Rain = 0
KST2 082328Z 26006KT 30/M03 A2968 RMK A01 T02991029  RH  012%=      5-min Rain = 0
KST2 082329Z 25008KT 30/M03 A2968 RMK A01 T02991025  RH  012%=      5-min Rain = 0
KST2 082330Z 24007KT 30/M03 A2968 RMK A01 T02981026  RH  012%=      5-min Rain = 0
KST2 082331Z 25007KT 30/M03 A2968 RMK A01 T02971025  RH  012%=      5-min Rain = 0
KST2 082332Z 26008KT 30/M02 A2968 RMK A01 T02971022  RH  012%=      5-min Rain = 0
KST2 082333Z 26008KT 30/M02 A2968 RMK A01 T02971017  RH  013%=      5-min Rain = 0
KST2 082334Z 27008KT 30/M02 A2968 RMK A01 T02981022  RH  012%=      5-min Rain = 0
KST2 082335Z 27008KT 30/M02 A2968 RMK A01 T02981020  RH  013%=      5-min Rain = 0
KST2 082336Z 26007KT 30/M02 A2968 RMK A01 T02981016  RH  013%=      5-min Rain = 0
KST2 082337Z 25009KT 30/M01 A2968 RMK A01 T02991011  RH  013%=      5-min Rain = 0
KST2 082338Z 25008KT 30/M02 A2968 RMK A01 T02991020  RH  013%=      5-min Rain = 0
KST2 082339Z 26007KT 30/M02 A2968 RMK A01 T02981018  RH  013%=      5-min Rain = 0
KST2 082340Z 25008KT 30/M02 A2968 RMK A01 T02971015  RH  013%=      5-min Rain = 0
KST2 082341Z 26010KT 30/M02 A2968 RMK A01 T02971019  RH  013%=      5-min Rain = 0
KST2 082342Z 27008KT 30/M02 A2968 RMK A01 T02961015  RH  013%=      5-min Rain = 0
KST2 082343Z 26009KT 30/M01 A2969 RMK A01 T02961014  RH  013%=      5-min Rain = 0
KST2 082344Z 27008KT 30/M02 A2969 RMK A01 T02961019  RH  013%=      5-min Rain = 0
KST2 082345Z 28008KT 30/M02 A2969 RMK A01 T02961023  RH  012%=      5-min Rain = 0
KST2 082346Z 28008KT 30/M03 A2969 RMK A01 T02961027  RH  012%=      5-min Rain = 0
KST2 082347Z 29009KT 30/M03 A2969 RMK A01 T02961027  RH  012%=      5-min Rain = 0
KST2 082348Z 28011KT 30/M03 A2969 RMK A01 T02951027  RH  012%=      5-min Rain = 0
KST2 082349Z 28011KT 30/M03 A2969 RMK A01 T02951029  RH  012%=      5-min Rain = 0
KST2 082350Z 28011KT 30/M03 A2969 RMK A01 T02951027  RH  012%=      5-min Rain = 0
KST2 082351Z 28009KT 29/M03 A2969 RMK A01 T02941026  RH  012%=      5-min Rain = 0
KST2 082352Z 28009KT 29/M03 A2969 RMK A01 T02941027  RH  012%=      5-min Rain = 0
KST2 082353Z 27009KT 29/M02 A2969 RMK A01 T02941023  RH  013%=      5-min Rain = 0
KST2 082354Z 27009KT 29/M02 A2969 RMK A01 T02941022  RH  013%=      5-min Rain = 0
KST2 082355Z 28009KT 29/M02 A2969 RMK A01 T02941021  RH  013%=      5-min Rain = 0
KST2 082356Z 28008KT 29/M02 A2969 RMK A01 T02941021  RH  013%=      5-min Rain = 0
KST2 082357Z 28009KT 30/M02 A2969 RMK A01 T02951023  RH  013%=      5-min Rain = 0
KST2 082358Z 28010KT 30/M02 A2969 RMK A01 T02951023  RH  013%=      5-min Rain = 0
KST2 082359Z 28008KT 29/M03 A2969 RMK A01 T02941025  RH  012%=      5-min Rain = 0
KST2 090000Z 28008KT 29/M03 A2969 RMK A01 T02941025  RH  012%=      5-min Rain = 0
KST2 090001Z 29010KT 29/M03 A2969 RMK A01 T02941025  RH  012%=      5-min Rain = 0
KST2 090002Z 28008KT 29/M03 A2969 RMK A01 T02941025  RH  012%=      5-min Rain = 0
KST2 090003Z 29007KT 29/M02 A2969 RMK A01 T02941024  RH  012%=      5-min Rain = 0
KST2 090004Z 29007KT 29/M02 A2969 RMK A01 T02941022  RH  013%=      5-min Rain = 0
KST2 090005Z 29008KT 29/M02 A2969 RMK A01 T02941019  RH  013%=      5-min Rain = 0
KST2 090006Z 28008KT 29/M02 A2968 RMK A01 T02941018  RH  013%=      5-min Rain = 0
KST2 090007Z 27007KT 29/M02 A2968 RMK A01 T02941020  RH  013%=      5-min Rain = 0
KST2 090008Z 28007KT 29/M02 A2968 RMK A01 T02931021  RH  013%=      5-min Rain = 0
KST2 090009Z 27005KT 29/M02 A2968 RMK A01 T02931023  RH  013%=      5-min Rain = 0
KST2 090010Z 28005KT 29/M02 A2968 RMK A01 T02921021  RH  013%=      5-min Rain = 0
KST2 090011Z 27005KT 29/M02 A2968 RMK A01 T02921022  RH  013%=      5-min Rain = 0
KST2 090012Z 28006KT 29/M02 A2968 RMK A01 T02931022  RH  013%=      5-min Rain = 0
KST2 090013Z 29005KT 29/M02 A2968 RMK A01 T02921020  RH  013%=      5-min Rain = 0
KST2 090014Z 30004KT 29/M02 A2968 RMK A01 T02921018  RH  013%=      5-min Rain = 0
KST2 090015Z 30005KT 29/M02 A2968 RMK A01 T02921016  RH  013%=      5-min Rain = 0
KST2 090016Z 29004KT 29/M01 A2968 RMK A01 T02921014  RH  014%=      5-min Rain = 0
KST2 090017Z 29004KT 29/M01 A2968 RMK A01 T02911012  RH  014%=      5-min Rain = 0
KST2 090018Z 30004KT 29/M01 A2968 RMK A01 T02901011  RH  014%=      5-min Rain = 0
KST2 090019Z 30004KT 29/M01 A2968 RMK A01 T02901011  RH  014%=      5-min Rain = 0
KST2 090020Z 31004KT 29/M01 A2968 RMK A01 T02901014  RH  014%=      5-min Rain = 0
KST2 090021Z 31004KT 29/M01 A2968 RMK A01 T02891012  RH  014%=      5-min Rain = 0
KST2 090022Z 32004KT 29/M01 A2968 RMK A01 T02891010  RH  014%=      5-min Rain = 0
KST2 090023Z 32004KT 29/M01 A2968 RMK A01 T02881005  RH  015%=      5-min Rain = 0
KST2 090024Z 32004KT 29/M00 A2968 RMK A01 T02871004  RH  015%=      5-min Rain = 0
KST2 090025Z 32003KT 29/M00 A2968 RMK A01 T02851002  RH  015%=      5-min Rain = 0
KST2 090026Z 33003KT 28/M00 A2968 RMK A01 T02841001  RH  016%=      5-min Rain = 0
KST2 090027Z 33003KT 28/00 A2968 RMK A01 T02830000  RH  016%=      5-min Rain = 0
KST2 090028Z 32003KT 28/00 A2968 RMK A01 T02820000  RH  016%=      5-min Rain = 0
KST2 090029Z 32004KT 28/M00 A2968 RMK A01 T02811002  RH  016%=      5-min Rain = 0
KST2 090030Z 32004KT 28/M00 A2968 RMK A01 T02801004  RH  016%=      5-min Rain = 0
KST2 090031Z 32004KT 28/M01 A2968 RMK A01 T02791005  RH  016%=      5-min Rain = 0
KST2 090032Z 33004KT 28/M01 A2968 RMK A01 T02781005  RH  016%=      5-min Rain = 0
KST2 090033Z 33004KT 28/M01 A2968 RMK A01 T02771005  RH  016%=      5-min Rain = 0
KST2 090034Z 34004KT 28/M00 A2968 RMK A01 T02751003  RH  016%=      5-min Rain = 0
KST2 090035Z 34004KT 27/M00 A2968 RMK A01 T02741001  RH  017%=      5-min Rain = 0
KST2 090036Z 34004KT 27/02 A2968 RMK A01 T02700016  RH  019%=      5-min Rain = 0
KST2 090037Z 34004KT 27/01 A2968 RMK A01 T02670005  RH  018%=      5-min Rain = 0
KST2 090038Z 35004KT 27/01 A2968 RMK A01 T02670005  RH  018%=      5-min Rain = 0
KST2 090039Z 35003KT 27/00 A2968 RMK A01 T02660004  RH  018%=      5-min Rain = 0
KST2 090040Z 35003KT 27/00 A2968 RMK A01 T02650004  RH  018%=      5-min Rain = 0
KST2 090041Z 35003KT 27/01 A2968 RMK A01 T02660006  RH  018%=      5-min Rain = 0
KST2 090042Z 35003KT 27/01 A2968 RMK A01 T02660006  RH  018%=      5-min Rain = 0
KST2 090043Z 36003KT 27/00 A2968 RMK A01 T02660004  RH  018%=      5-min Rain = 0
KST2 090044Z 00003KT 27/00 A2968 RMK A01 T02660003  RH  018%=      5-min Rain = 0
KST2 090045Z 01004KT 27/01 A2968 RMK A01 T02650014  RH  020%=      5-min Rain = 0
KST2 090046Z 01004KT 26/02 A2968 RMK A01 T02630017  RH  020%=      5-min Rain = 0
KST2 090047Z 01003KT 26/00 A2968 RMK A01 T02610003  RH  019%=      5-min Rain = 0
KST2 090048Z 02004KT 26/00 A2968 RMK A01 T02610004  RH  019%=      5-min Rain = 0
KST2 090049Z 02004KT 26/00 A2968 RMK A01 T02620004  RH  019%=      5-min Rain = 0
KST2 090050Z 02004KT 26/00 A2968 RMK A01 T02620004  RH  019%=      5-min Rain = 0
KST2 090051Z 02004KT 26/01 A2968 RMK A01 T02630011  RH  019%=      5-min Rain = 0
KST2 090052Z 02004KT 26/02 A2968 RMK A01 T02610018  RH  021%=      5-min Rain = 0
KST2 090053Z 02004KT 26/02 A2968 RMK A01 T02580019  RH  021%=      5-min Rain = 0
KST2 090054Z 02005KT 26/02 A2968 RMK A01 T02560018  RH  021%=      5-min Rain = 0
KST2 090055Z 02005KT 26/02 A2968 RMK A01 T02550017  RH  021%=      5-min Rain = 0
KST2 090056Z 02005KT 25/02 A2968 RMK A01 T02540017  RH  021%=      5-min Rain = 0
KST2 090057Z 02004KT 25/02 A2968 RMK A01 T02540015  RH  021%=      5-min Rain = 0
KST2 090058Z 03005KT 25/01 A2968 RMK A01 T02530011  RH  021%=      5-min Rain = 0
KST2 090059Z 03005KT 25/01 A2968 RMK A01 T02530010  RH  020%=      5-min Rain = 0
KST2 090100Z 03005KT 25/01 A2968 RMK A01 T02520012  RH  021%=      5-min Rain = 0
KST2 090101Z 03005KT 25/01 A2968 RMK A01 T02520014  RH  021%=      5-min Rain = 0
KST2 090102Z 03005KT 25/02 A2968 RMK A01 T02520017  RH  022%=      5-min Rain = 0
KST2 090103Z 03004KT 25/02 A2968 RMK A01 T02520017  RH  022%=      5-min Rain = 0
KST2 090104Z 03004KT 25/02 A2968 RMK A01 T02510018  RH  022%=      5-min Rain = 0
KST2 090105Z 03004KT 25/02 A2968 RMK A01 T02510019  RH  022%=      5-min Rain = 0
KST2 090106Z 03004KT 25/02 A2968 RMK A01 T02500015  RH  022%=      5-min Rain = 0
KST2 090107Z 03005KT 25/01 A2968 RMK A01 T02500014  RH  021%=      5-min Rain = 0
KST2 090108Z 03005KT 25/01 A2968 RMK A01 T02490012  RH  021%=      5-min Rain = 0
KST2 090109Z 03005KT 25/01 A2968 RMK A01 T02490005  RH  020%=      5-min Rain = 0
KST2 090110Z 03005KT 25/01 A2968 RMK A01 T02490007  RH  020%=      5-min Rain = 0
KST2 090111Z 03005KT 25/01 A2968 RMK A01 T02490007  RH  020%=      5-min Rain = 0
KST2 090112Z 03006KT 25/01 A2968 RMK A01 T02480007  RH  021%=      5-min Rain = 0
KST2 090113Z 03005KT 25/01 A2968 RMK A01 T02460008  RH  021%=      5-min Rain = 0
KST2 090114Z 03005KT 25/01 A2968 RMK A01 T02450009  RH  021%=      5-min Rain = 0
KST2 090115Z 03005KT 24/01 A2968 RMK A01 T02430010  RH  022%=      5-min Rain = 0
KST2 090116Z 03005KT 24/01 A2968 RMK A01 T02410009  RH  022%=      5-min Rain = 0
KST2 090117Z 03005KT 24/01 A2968 RMK A01 T02400010  RH  022%=      5-min Rain = 0
KST2 090118Z 03005KT 24/01 A2968 RMK A01 T02360014  RH  023%=      5-min Rain = 0
KST2 090119Z 04006KT 23/02 A2968 RMK A01 T02320017  RH  024%=      5-min Rain = 0
KST2 090120Z 04006KT 23/01 A2968 RMK A01 T02280010  RH  024%=      5-min Rain = 0
KST2 090121Z 04006KT 23/01 A2968 RMK A01 T02290008  RH  023%=      5-min Rain = 0
KST2 090122Z 04006KT 23/01 A2968 RMK A01 T02290008  RH  023%=      5-min Rain = 0
KST2 090123Z 04006KT 23/01 A2967 RMK A01 T02290007  RH  023%=      5-min Rain = 0
KST2 090124Z 04005KT 23/01 A2967 RMK A01 T02290005  RH  023%=      5-min Rain = 0
KST2 090125Z 05005KT 23/00 A2967 RMK A01 T02290002  RH  022%=      5-min Rain = 0
KST2 090126Z 05005KT 23/00 A2967 RMK A01 T02290000  RH  022%=      5-min Rain = 0
KST2 090127Z 05005KT 23/M00 A2967 RMK A01 T02291001  RH  022%=      5-min Rain = 0
KST2 090128Z 05005KT 23/M00 A2967 RMK A01 T02291002  RH  022%=      5-min Rain = 0
KST2 090129Z 06005KT 23/M00 A2967 RMK A01 T02281003  RH  021%=      5-min Rain = 0
KST2 090130Z 06005KT 23/M01 A2967 RMK A01 T02271006  RH  021%=      5-min Rain = 0
KST2 090131Z 06005KT 23/M01 A2967 RMK A01 T02261007  RH  021%=      5-min Rain = 0
KST2 090132Z 06005KT 22/M01 A2967 RMK A01 T02241007  RH  021%=      5-min Rain = 0
KST2 090133Z 06005KT 22/M01 A2967 RMK A01 T02231006  RH  022%=      5-min Rain = 0
KST2 090134Z 06005KT 22/M01 A2967 RMK A01 T02241007  RH  021%=      5-min Rain = 0
KST2 090135Z 06005KT 23/M01 A2967 RMK A01 T02251007  RH  021%=      5-min Rain = 0
KST2 090136Z 06005KT 23/M01 A2967 RMK A01 T02261007  RH  021%=      5-min Rain = 0
KST2 090137Z 08004KT 23/M01 A2967 RMK A01 T02251005  RH  022%=      5-min Rain = 0
KST2 090138Z 10004KT 22/M01 A2967 RMK A01 T02211006  RH  022%=      5-min Rain = 0
KST2 090139Z 08004KT 22/M01 A2967 RMK A01 T02191005  RH  022%=      5-min Rain = 0
KST2 090140Z 08004KT 22/M00 A2967 RMK A01 T02181003  RH  023%=      5-min Rain = 0
KST2 090141Z 08004KT 22/M00 A2967 RMK A01 T02181002  RH  023%=      5-min Rain = 0
KST2 090142Z 08005KT 22/M00 A2967 RMK A01 T02171002  RH  023%=      5-min Rain = 0
KST2 090143Z 08005KT 22/M00 A2967 RMK A01 T02161002  RH  023%=      5-min Rain = 0
KST2 090144Z 08005KT 22/00 A2967 RMK A01 T02160000  RH  024%=      5-min Rain = 0
KST2 090145Z 08005KT 22/00 A2967 RMK A01 T02150004  RH  024%=      5-min Rain = 0
KST2 090146Z 08005KT 22/00 A2967 RMK A01 T02150003  RH  024%=      5-min Rain = 0
KST2 090147Z 08005KT 22/00 A2967 RMK A01 T02150002  RH  024%=      5-min Rain = 0
KST2 090148Z 08005KT 22/00 A2967 RMK A01 T02150003  RH  024%=      5-min Rain = 0
KST2 090149Z 08006KT 21/00 A2967 RMK A01 T02130003  RH  025%=      5-min Rain = 0
KST2 090150Z 08005KT 21/00 A2967 RMK A01 T02110003  RH  025%=      5-min Rain = 0
KST2 090151Z 08005KT 21/00 A2967 RMK A01 T02100002  RH  025%=      5-min Rain = 0
KST2 090152Z 08005KT 21/00 A2967 RMK A01 T02080002  RH  025%=      5-min Rain = 0
KST2 090153Z 08005KT 21/00 A2967 RMK A01 T02070002  RH  025%=      5-min Rain = 0
KST2 090154Z 08005KT 21/00 A2967 RMK A01 T02050001  RH  025%=      5-min Rain = 0
KST2 090155Z 08005KT 21/00 A2967 RMK A01 T02050000  RH  025%=      5-min Rain = 0
KST2 090156Z 08005KT 21/00 A2967 RMK A01 T02050001  RH  026%=      5-min Rain = 0
KST2 090157Z 08005KT 21/00 A2967 RMK A01 T02060002  RH  026%=      5-min Rain = 0
KST2 090158Z 08005KT 21/00 A2967 RMK A01 T02090003  RH  025%=      5-min Rain = 0
KST2 090159Z 08006KT 21/00 A2967 RMK A01 T02110003  RH  025%=      5-min Rain = 0
KST2 090200Z 08006KT 21/00 A2967 RMK A01 T02140003  RH  025%=      5-min Rain = 0
KST2 090201Z 09006KT 22/00 A2967 RMK A01 T02150003  RH  024%=      5-min Rain = 0
KST2 090202Z 11007KT 22/00 A2967 RMK A01 T02150001  RH  024%=      5-min Rain = 0
KST2 090203Z 11005KT 21/M00 A2967 RMK A01 T02121001  RH  024%=      5-min Rain = 0
KST2 090204Z 11005KT 21/M01 A2967 RMK A01 T02091005  RH  024%=      5-min Rain = 0
KST2 090205Z 10005KT 21/M01 A2967 RMK A01 T02071007  RH  024%=      5-min Rain = 0
KST2 090206Z 10006KT 21/M01 A2967 RMK A01 T02051007  RH  024%=      5-min Rain = 0
KST2 090207Z 10006KT 20/M01 A2967 RMK A01 T02041010  RH  024%=      5-min Rain = 0
KST2 090208Z 10005KT 20/M01 A2967 RMK A01 T02041008  RH  024%=      5-min Rain = 0
KST2 090209Z 10006KT 20/M01 A2967 RMK A01 T02041005  RH  025%=      5-min Rain = 0
KST2 090210Z 10006KT 20/M00 A2967 RMK A01 T02041002  RH  025%=      5-min Rain = 0
KST2 090211Z 10006KT 20/M00 A2967 RMK A01 T02031001  RH  026%=      5-min Rain = 0
KST2 090212Z 10006KT 20/00 A2967 RMK A01 T02020001  RH  026%=      5-min Rain = 0
KST2 090213Z 10006KT 20/00 A2967 RMK A01 T02010002  RH  026%=      5-min Rain = 0
KST2 090214Z 10007KT 20/00 A2967 RMK A01 T02000002  RH  026%=      5-min Rain = 0
KST2 090215Z 09007KT 20/00 A2967 RMK A01 T02010001  RH  026%=      5-min Rain = 0
KST2 090216Z 09007KT 20/00 A2967 RMK A01 T02020002  RH  026%=      5-min Rain = 0
KST2 090217Z 09007KT 20/00 A2967 RMK A01 T02020002  RH  026%=      5-min Rain = 0
KST2 090218Z 09007KT 20/00 A2967 RMK A01 T02020001  RH  026%=      5-min Rain = 0
KST2 090219Z 09008KT 20/M00 A2967 RMK A01 T02021001  RH  026%=      5-min Rain = 0
KST2 090220Z 09008KT 20/M00 A2967 RMK A01 T02011003  RH  025%=      5-min Rain = 0
KST2 090221Z 09008KT 20/M00 A2967 RMK A01 T02001004  RH  025%=      5-min Rain = 0
KST2 090222Z 09007KT 20/M01 A2967 RMK A01 T01991005  RH  025%=      5-min Rain = 0
KST2 090223Z 09007KT 20/M00 A2967 RMK A01 T01981004  RH  026%=      5-min Rain = 0
KST2 090224Z 10007KT 20/M00 A2967 RMK A01 T01981002  RH  026%=      5-min Rain = 0
KST2 090225Z 11006KT 20/M01 A2967 RMK A01 T01961007  RH  026%=      5-min Rain = 0
KST2 090226Z 10006KT 19/M01 A2967 RMK A01 T01941012  RH  025%=      5-min Rain = 0
KST2 090227Z 11006KT 19/M02 A2967 RMK A01 T01921015  RH  025%=      5-min Rain = 0
KST2 090228Z 11006KT 19/M01 A2967 RMK A01 T01901012  RH  025%=      5-min Rain = 0
KST2 090229Z 11006KT 19/M01 A2967 RMK A01 T01891010  RH  026%=      5-min Rain = 0
KST2 090230Z 11006KT 19/M01 A2967 RMK A01 T01891009  RH  026%=      5-min Rain = 0
KST2 090231Z 11006KT 19/M01 A2967 RMK A01 T01881007  RH  027%=      5-min Rain = 0
KST2 090232Z 11006KT 19/M00 A2967 RMK A01 T01891004  RH  027%=      5-min Rain = 0
KST2 090233Z 11006KT 19/M00 A2967 RMK A01 T01901002  RH  027%=      5-min Rain = 0
KST2 090234Z 10006KT 19/M00 A2967 RMK A01 T01911003  RH  027%=      5-min Rain = 0
KST2 090235Z 10006KT 19/M00 A2967 RMK A01 T01911002  RH  027%=      5-min Rain = 0
KST2 090236Z 10006KT 19/M00 A2967 RMK A01 T01911001  RH  027%=      5-min Rain = 0
KST2 090237Z 09006KT 19/M00 A2967 RMK A01 T01921004  RH  027%=      5-min Rain = 0
KST2 090238Z 09006KT 19/M01 A2967 RMK A01 T01931005  RH  026%=      5-min Rain = 0
KST2 090239Z 09006KT 19/M01 A2967 RMK A01 T01931007  RH  026%=      5-min Rain = 0
KST2 090240Z 09006KT 19/M01 A2967 RMK A01 T01931009  RH  026%=      5-min Rain = 0
KST2 090241Z 09006KT 19/M01 A2967 RMK A01 T01911006  RH  026%=      5-min Rain = 0
KST2 090242Z 08006KT 19/M01 A2967 RMK A01 T01901007  RH  026%=      5-min Rain = 0
KST2 090243Z 08007KT 19/M01 A2967 RMK A01 T01881006  RH  027%=      5-min Rain = 0
KST2 090244Z 08007KT 19/M00 A2967 RMK A01 T01861001  RH  028%=      5-min Rain = 0
KST2 090245Z 09007KT 18/00 A2967 RMK A01 T01840001  RH  029%=      5-min Rain = 0
KST2 090246Z 09007KT 18/M00 A2967 RMK A01 T01831001  RH  029%=      5-min Rain = 0
KST2 090247Z 10007KT 18/M01 A2967 RMK A01 T01821005  RH  028%=      5-min Rain = 0
KST2 090248Z 10007KT 18/M01 A2968 RMK A01 T01811007  RH  028%=      5-min Rain = 0
KST2 090249Z 11007KT 18/M01 A2968 RMK A01 T01801011  RH  027%=      5-min Rain = 0
KST2 090250Z 11007KT 18/M01 A2968 RMK A01 T01791013  RH  027%=      5-min Rain = 0
KST2 090251Z 11007KT 18/M01 A2968 RMK A01 T01791012  RH  027%=      5-min Rain = 0
KST2 090252Z 11007KT 18/M02 A2968 RMK A01 T01801015  RH  027%=      5-min Rain = 0
KST2 090253Z 11007KT 18/M01 A2968 RMK A01 T01801014  RH  027%=      5-min Rain = 0
KST2 090254Z 11007KT 18/M01 A2968 RMK A01 T01811012  RH  027%=      5-min Rain = 0
KST2 090255Z 11007KT 18/M01 A2968 RMK A01 T01821010  RH  027%=      5-min Rain = 0
KST2 090256Z 11007KT 18/M01 A2968 RMK A01 T01831010  RH  027%=      5-min Rain = 0
KST2 090257Z 11007KT 18/M01 A2967 RMK A01 T01831012  RH  027%=      5-min Rain = 0
KST2 090258Z 11007KT 18/M02 A2967 RMK A01 T01821015  RH  026%=      5-min Rain = 0
KST2 090259Z 12007KT 18/M02 A2967 RMK A01 T01811015  RH  026%=      5-min Rain = 0
KST2 090300Z 12007KT 18/M02 A2967 RMK A01 T01801015  RH  027%=      5-min Rain = 0
KST2 090301Z 12007KT 18/M01 A2967 RMK A01 T01781014  RH  027%=      5-min Rain = 0
KST2 090302Z 12008KT 18/M01 A2967 RMK A01 T01771011  RH  028%=      5-min Rain = 0
KST2 090303Z 12008KT 18/M01 A2967 RMK A01 T01761014  RH  028%=      5-min Rain = 0
KST2 090304Z 12008KT 18/M02 A2967 RMK A01 T01751015  RH  027%=      5-min Rain = 0
KST2 090305Z 12008KT 18/M02 A2967 RMK A01 T01751015  RH  027%=      5-min Rain = 0
KST2 090306Z 12008KT 18/M02 A2967 RMK A01 T01751015  RH  027%=      5-min Rain = 0
KST2 090307Z 12008KT 18/M01 A2967 RMK A01 T01761014  RH  027%=      5-min Rain = 0
KST2 090308Z 12008KT 18/M01 A2967 RMK A01 T01771014  RH  027%=      5-min Rain = 0
KST2 090309Z 12008KT 18/M01 A2967 RMK A01 T01771013  RH  027%=      5-min Rain = 0
KST2 090310Z 12008KT 18/M01 A2967 RMK A01 T01781012  RH  027%=      5-min Rain = 0
KST2 090311Z 12009KT 18/M01 A2967 RMK A01 T01781012  RH  028%=      5-min Rain = 0
KST2 090312Z 12009KT 18/M01 A2967 RMK A01 T01781011  RH  028%=      5-min Rain = 0
KST2 090313Z 12009KT 18/M01 A2967 RMK A01 T01781011  RH  028%=      5-min Rain = 0
KST2 090314Z 12008KT 18/M01 A2967 RMK A01 T01781012  RH  028%=      5-min Rain = 0
KST2 090315Z 12008KT 18/M01 A2967 RMK A01 T01791012  RH  027%=      5-min Rain = 0
KST2 090316Z 12008KT 18/M01 A2967 RMK A01 T01791012  RH  027%=      5-min Rain = 0
KST2 090317Z 12007KT 18/M01 A2967 RMK A01 T01781012  RH  027%=      5-min Rain = 0
KST2 090318Z 12007KT 18/M01 A2967 RMK A01 T01781012  RH  027%=      5-min Rain = 0
KST2 090319Z 12006KT 18/M01 A2967 RMK A01 T01771012  RH  028%=      5-min Rain = 0
KST2 090320Z 12006KT 18/M01 A2967 RMK A01 T01771012  RH  028%=      5-min Rain = 0
KST2 090321Z 12007KT 18/M01 A2967 RMK A01 T01761012  RH  028%=      5-min Rain = 0
KST2 090322Z 12006KT 18/M01 A2967 RMK A01 T01751011  RH  028%=      5-min Rain = 0
KST2 090323Z 12006KT 18/M01 A2967 RMK A01 T01751011  RH  028%=      5-min Rain = 0
KST2 090324Z 11006KT 18/M01 A2967 RMK A01 T01751011  RH  028%=      5-min Rain = 0
KST2 090325Z 11006KT 18/M01 A2967 RMK A01 T01751010  RH  028%=      5-min Rain = 0
KST2 090326Z 11007KT 17/M00 A2967 RMK A01 T01741004  RH  030%=      5-min Rain = 0
KST2 090327Z 10007KT 17/00 A2967 RMK A01 T01720000  RH  031%=      5-min Rain = 0
KST2 090328Z 10006KT 17/00 A2967 RMK A01 T01700002  RH  032%=      5-min Rain = 0
KST2 090329Z 11006KT 17/00 A2967 RMK A01 T016900-0  RH  032%=      5-min Rain = 0
KST2 090330Z 11007KT 17/M00 A2967 RMK A01 T01701001  RH  031%=      5-min Rain = 0
KST2 090331Z 11008KT 17/M00 A2967 RMK A01 T01711003  RH  031%=      5-min Rain = 0
KST2 090332Z 11008KT 17/M01 A2967 RMK A01 T01721007  RH  030%=      5-min Rain = 0
KST2 090333Z 11008KT 17/M01 A2966 RMK A01 T01731008  RH  029%=      5-min Rain = 0
KST2 090334Z 11008KT 18/M01 A2966 RMK A01 T01751008  RH  029%=      5-min Rain = 0
KST2 090335Z 11008KT 18/M01 A2966 RMK A01 T01761008  RH  029%=      5-min Rain = 0
KST2 090336Z 11008KT 18/M01 A2966 RMK A01 T01771007  RH  029%=      5-min Rain = 0
KST2 090337Z 11007KT 18/M01 A2966 RMK A01 T01771007  RH  029%=      5-min Rain = 0
KST2 090338Z 11007KT 18/M01 A2966 RMK A01 T01761006  RH  029%=      5-min Rain = 0
KST2 090339Z 11007KT 18/M01 A2966 RMK A01 T01761006  RH  029%=      5-min Rain = 0
KST2 090340Z 11007KT 18/M01 A2966 RMK A01 T01751006  RH  029%=      5-min Rain = 0
KST2 090341Z 11007KT 18/M01 A2966 RMK A01 T01751005  RH  029%=      5-min Rain = 0
KST2 090342Z 11007KT 17/M01 A2966 RMK A01 T01741005  RH  030%=      5-min Rain = 0
KST2 090343Z 11007KT 17/M01 A2966 RMK A01 T01741005  RH  030%=      5-min Rain = 0
KST2 090344Z 11007KT 17/M01 A2966 RMK A01 T01731006  RH  030%=      5-min Rain = 0
KST2 090345Z 11007KT 17/M01 A2966 RMK A01 T01721006  RH  030%=      5-min Rain = 0
KST2 090346Z 11007KT 17/M01 A2966 RMK A01 T01711007  RH  030%=      5-min Rain = 0
KST2 090347Z 11007KT 17/M01 A2966 RMK A01 T01701007  RH  030%=      5-min Rain = 0
KST2 090348Z 11007KT 17/M01 A2966 RMK A01 T01691007  RH  030%=      5-min Rain = 0
KST2 090349Z 11007KT 17/M01 A2966 RMK A01 T01681007  RH  030%=      5-min Rain = 0
KST2 090350Z 11007KT 17/M01 A2966 RMK A01 T01681006  RH  031%=      5-min Rain = 0
KST2 090351Z 11007KT 17/M01 A2966 RMK A01 T01671006  RH  031%=      5-min Rain = 0
KST2 090352Z 12007KT 17/M01 A2966 RMK A01 T01671006  RH  031%=      5-min Rain = 0
KST2 090353Z 12008KT 17/M01 A2966 RMK A01 T01661006  RH  031%=      5-min Rain = 0
KST2 090354Z 12007KT 17/M01 A2966 RMK A01 T01651007  RH  031%=      5-min Rain = 0
KST2 090355Z 12007KT 17/M01 A2966 RMK A01 T01651008  RH  031%=      5-min Rain = 0
KST2 090356Z 12007KT 16/M01 A2966 RMK A01 T01631008  RH  031%=      5-min Rain = 0
KST2 090357Z 12007KT 16/M01 A2966 RMK A01 T01621009  RH  031%=      5-min Rain = 0
KST2 090358Z 12007KT 16/M01 A2966 RMK A01 T01611009  RH  031%=      5-min Rain = 0
KST2 090359Z 12007KT 16/M01 A2966 RMK A01 T01611009  RH  031%=      5-min Rain = 0
KST2 090400Z 12007KT 16/M01 A2966 RMK A01 T01611010  RH  031%=      5-min Rain = 0
KST2 090401Z 12007KT 16/M01 A2966 RMK A01 T01621011  RH  031%=      5-min Rain = 0
KST2 090402Z 12008KT 16/M01 A2966 RMK A01 T01631012  RH  030%=      5-min Rain = 0
KST2 090403Z 12008KT 16/M01 A2966 RMK A01 T01631012  RH  030%=      5-min Rain = 0
KST2 090404Z 12007KT 16/M01 A2966 RMK A01 T01641012  RH  030%=      5-min Rain = 0
KST2 090405Z 12007KT 16/M01 A2966 RMK A01 T01621012  RH  030%=      5-min Rain = 0
KST2 090406Z 13007KT 16/M01 A2966 RMK A01 T01611010  RH  031%=      5-min Rain = 0
KST2 090407Z 13006KT 16/M01 A2966 RMK A01 T01611009  RH  031%=      5-min Rain = 0
KST2 090408Z 13006KT 16/M01 A2966 RMK A01 T01611009  RH  031%=      5-min Rain = 0
KST2 090409Z 13006KT 16/M01 A2966 RMK A01 T01601008  RH  032%=      5-min Rain = 0
KST2 090410Z 13006KT 16/M01 A2966 RMK A01 T01601008  RH  032%=      5-min Rain = 0
KST2 090411Z 13006KT 16/M01 A2966 RMK A01 T01601006  RH  032%=      5-min Rain = 0
KST2 090412Z 13006KT 16/M01 A2965 RMK A01 T01601007  RH  032%=      5-min Rain = 0
KST2 090413Z 13007KT 16/M01 A2965 RMK A01 T01601007  RH  032%=      5-min Rain = 0
KST2 090414Z 13007KT 16/M01 A2965 RMK A01 T01601008  RH  032%=      5-min Rain = 0
KST2 090415Z 13007KT 16/M01 A2965 RMK A01 T01601008  RH  032%=      5-min Rain = 0
KST2 090416Z 13007KT 16/M01 A2965 RMK A01 T01591009  RH  031%=      5-min Rain = 0
KST2 090417Z 13008KT 16/M01 A2965 RMK A01 T01591008  RH  032%=      5-min Rain = 0
KST2 090418Z 13008KT 16/M01 A2965 RMK A01 T01591007  RH  032%=      5-min Rain = 0
KST2 090419Z 13008KT 16/M01 A2965 RMK A01 T01591007  RH  032%=      5-min Rain = 0
KST2 090420Z 13008KT 16/M01 A2965 RMK A01 T01591007  RH  032%=      5-min Rain = 0
KST2 090421Z 13008KT 16/M01 A2965 RMK A01 T01591006  RH  032%=      5-min Rain = 0
KST2 090422Z 14007KT 16/M01 A2965 RMK A01 T01581005  RH  033%=      5-min Rain = 0
KST2 090423Z 14007KT 16/M01 A2965 RMK A01 T01581005  RH  033%=      5-min Rain = 0
KST2 090424Z 14007KT 16/M01 A2965 RMK A01 T01581007  RH  032%=      5-min Rain = 0
KST2 090425Z 14006KT 16/M01 A2965 RMK A01 T01571012  RH  031%=      5-min Rain = 0
KST2 090426Z 14007KT 16/M01 A2965 RMK A01 T01551012  RH  032%=      5-min Rain = 0
KST2 090427Z 14007KT 15/M01 A2965 RMK A01 T01541011  RH  032%=      5-min Rain = 0
KST2 090428Z 13007KT 15/M01 A2965 RMK A01 T01531010  RH  033%=      5-min Rain = 0
KST2 090429Z 13007KT 15/M01 A2965 RMK A01 T01531010  RH  033%=      5-min Rain = 0
KST2 090430Z 13008KT 15/M01 A2965 RMK A01 T01531011  RH  033%=      5-min Rain = 0
KST2 090431Z 13008KT 15/M01 A2965 RMK A01 T01541011  RH  032%=      5-min Rain = 0
KST2 090432Z 13008KT 16/M01 A2965 RMK A01 T01561012  RH  032%=      5-min Rain = 0
KST2 090433Z 13007KT 16/M01 A2965 RMK A01 T01571012  RH  031%=      5-min Rain = 0
KST2 090434Z 13007KT 16/M01 A2965 RMK A01 T01571013  RH  031%=      5-min Rain = 0
KST2 090435Z 13008KT 16/M01 A2965 RMK A01 T01561014  RH  031%=      5-min Rain = 0
KST2 090436Z 13008KT 16/M02 A2964 RMK A01 T01561015  RH  031%=      5-min Rain = 0
KST2 090437Z 13008KT 16/M02 A2964 RMK A01 T01551015  RH  031%=      5-min Rain = 0
KST2 090438Z 13008KT 15/M02 A2964 RMK A01 T01541015  RH  031%=      5-min Rain = 0
KST2 090439Z 13008KT 15/M01 A2964 RMK A01 T01531013  RH  032%=      5-min Rain = 0
KST2 090440Z 14008KT 15/M01 A2964 RMK A01 T01541013  RH  032%=      5-min Rain = 0
KST2 090441Z 14008KT 15/M01 A2964 RMK A01 T01531012  RH  032%=      5-min Rain = 0
KST2 090442Z 14008KT 15/M01 A2964 RMK A01 T01541012  RH  032%=      5-min Rain = 0
KST2 090443Z 14007KT 16/M01 A2964 RMK A01 T01551011  RH  032%=      5-min Rain = 0
KST2 090444Z 14007KT 16/M01 A2964 RMK A01 T01551011  RH  032%=      5-min Rain = 0
KST2 090445Z 14007KT 16/M01 A2964 RMK A01 T01551010  RH  032%=      5-min Rain = 0
KST2 090446Z 14007KT 15/M01 A2964 RMK A01 T01541010  RH  032%=      5-min Rain = 0
KST2 090447Z 14007KT 15/M01 A2964 RMK A01 T01541009  RH  033%=      5-min Rain = 0
KST2 090448Z 14007KT 16/M01 A2964 RMK A01 T01551009  RH  033%=      5-min Rain = 0
KST2 090449Z 14007KT 16/M01 A2963 RMK A01 T01551009  RH  032%=      5-min Rain = 0
KST2 090450Z 14007KT 16/M01 A2963 RMK A01 T01561009  RH  032%=      5-min Rain = 0
KST2 090451Z 14007KT 16/M01 A2963 RMK A01 T01571009  RH  032%=      5-min Rain = 0
KST2 090452Z 14007KT 16/M01 A2963 RMK A01 T01571009  RH  032%=      5-min Rain = 0
KST2 090453Z 14007KT 16/M01 A2963 RMK A01 T01571010  RH  032%=      5-min Rain = 0
KST2 090454Z 14006KT 16/M01 A2963 RMK A01 T01571010  RH  032%=      5-min Rain = 0
KST2 090455Z 14006KT 16/M01 A2963 RMK A01 T01571009  RH  032%=      5-min Rain = 0
KST2 090456Z 15006KT 16/M01 A2963 RMK A01 T01571008  RH  032%=      5-min Rain = 0
KST2 090457Z 15006KT 16/M01 A2963 RMK A01 T01561008  RH  033%=      5-min Rain = 0
KST2 090458Z 16005KT 16/M01 A2963 RMK A01 T01551007  RH  033%=      5-min Rain = 0
KST2 090459Z 16006KT 16/M01 A2963 RMK A01 T01551006  RH  033%=      5-min Rain = 0

Page generated in 0.07 seconds.